<?xml version="1.0" encoding="UTF-8" standalone="no" ?>
<gpx xmlns="http://www.topografix.com/GPX/1/1" creator="MapSource 6.16.3" version="1.1" xmlns:xsi="http://www.w3.org/2001/XMLSchema-instance" xsi:schemaLocation="http://www.topografix.com/GPX/1/1 http://www.topografix.com/GPX/1/1/gpx.xsd">

  <metadata>
    <link href="http://www.garmin.com">
      <text>Garmin International</text>
    </link>
    <time>2016-09-06T15:22:13Z</time>
    <bounds maxlat="44.484372138977051" maxlon="11.272358894348145" minlat="44.432680606842041" minlon="11.159663200378418"/>
  </metadata>

  <trk>
    <name>ACTIVE LOG</name>
    <trkseg>
      <trkpt lat="44.47886279784143" lon="11.270919805392623">
        <ele>44</ele>
        <time>1989-12-31T00:00:00Z</time>
      </trkpt>
      <trkpt lat="44.478750228881836" lon="11.270899772644043">
        <ele>44</ele>
        <time>2002-10-26T06:43:55Z</time>
      </trkpt>
      <trkpt lat="44.478771686553955" lon="11.270878314971924">
        <ele>44</ele>
        <time>2002-10-26T06:43:56Z</time>
      </trkpt>
      <trkpt lat="44.478793060407043" lon="11.270835399627686">
        <ele>47</ele>
        <time>2002-10-26T06:44:01Z</time>
      </trkpt>
      <trkpt lat="44.478793060407043" lon="11.270813858136535">
        <ele>48</ele>
        <time>2002-10-26T06:44:03Z</time>
      </trkpt>
      <trkpt lat="44.478793060407043" lon="11.270792484283447">
        <ele>51</ele>
        <time>2002-10-26T06:44:11Z</time>
      </trkpt>
      <trkpt lat="44.478771686553955" lon="11.270813858136535">
        <ele>53</ele>
        <time>2002-10-26T06:44:20Z</time>
      </trkpt>
      <trkpt lat="44.47868593968451" lon="11.270771026611328">
        <ele>55</ele>
        <time>2002-10-26T06:44:29Z</time>
      </trkpt>
      <trkpt lat="44.478707313537598" lon="11.270706737414002">
        <ele>56</ele>
        <time>2002-10-26T06:44:35Z</time>
      </trkpt>
      <trkpt lat="44.47868593968451" lon="11.270685195922852">
        <ele>57</ele>
        <time>2002-10-26T06:44:37Z</time>
      </trkpt>
      <trkpt lat="44.478514194488525" lon="11.270642280578613">
        <ele>58</ele>
        <time>2002-10-26T06:44:51Z</time>
      </trkpt>
      <trkpt lat="44.478342533111572" lon="11.270534992218018">
        <ele>58</ele>
        <time>2002-10-26T06:45:07Z</time>
      </trkpt>
      <trkpt lat="44.478342533111572" lon="11.270492076873779">
        <ele>58</ele>
        <time>2002-10-26T06:52:25Z</time>
      </trkpt>
      <trkpt lat="44.478170871734619" lon="11.270384788513184">
        <ele>58</ele>
        <time>2002-10-26T06:52:35Z</time>
      </trkpt>
      <trkpt lat="44.478170871734619" lon="11.270191669464111">
        <ele>58</ele>
        <time>2002-10-26T06:52:48Z</time>
      </trkpt>
      <trkpt lat="44.478192329406738" lon="11.270170211791992">
        <ele>58</ele>
        <time>2002-10-26T06:53:07Z</time>
      </trkpt>
      <trkpt lat="44.478128040209413" lon="11.270170211791992">
        <ele>58</ele>
        <time>2002-10-26T06:53:11Z</time>
      </trkpt>
      <trkpt lat="44.477698802947998" lon="11.270105838775635">
        <ele>59</ele>
        <time>2002-10-26T06:53:24Z</time>
      </trkpt>
      <trkpt lat="44.477248191833496" lon="11.270255958661437">
        <ele>61</ele>
        <time>2002-10-26T06:53:36Z</time>
      </trkpt>
      <trkpt lat="44.476497173309326" lon="11.270964061841369">
        <ele>62</ele>
        <time>2002-10-26T06:53:57Z</time>
      </trkpt>
      <trkpt lat="44.476025104522705" lon="11.271350383758545">
        <ele>62</ele>
        <time>2002-10-26T06:54:12Z</time>
      </trkpt>
      <trkpt lat="44.475338459014893" lon="11.271951198577881">
        <ele>64</ele>
        <time>2002-10-26T06:54:31Z</time>
      </trkpt>
      <trkpt lat="44.474780559539795" lon="11.272208690643311">
        <ele>65</ele>
        <time>2002-10-26T06:54:46Z</time>
      </trkpt>
      <trkpt lat="44.474222660064697" lon="11.272358894348145">
        <ele>65</ele>
        <time>2002-10-26T06:55:00Z</time>
      </trkpt>
      <trkpt lat="44.473021030426025" lon="11.272315979003906">
        <ele>65</ele>
        <time>2002-10-26T06:55:27Z</time>
      </trkpt>
      <trkpt lat="44.471776485443115" lon="11.272079860791564">
        <ele>65</ele>
        <time>2002-10-26T06:55:53Z</time>
      </trkpt>
      <trkpt lat="44.470982635393739" lon="11.271908283233643">
        <ele>64</ele>
        <time>2002-10-26T06:56:10Z</time>
      </trkpt>
      <trkpt lat="44.470059871673584" lon="11.271543502807617">
        <ele>65</ele>
        <time>2002-10-26T06:56:31Z</time>
      </trkpt>
      <trkpt lat="44.469244480133057" lon="11.271092891693115">
        <ele>65</ele>
        <time>2002-10-26T06:56:52Z</time>
      </trkpt>
      <trkpt lat="44.46840763092041" lon="11.270620822906494">
        <ele>66</ele>
        <time>2002-10-26T06:57:13Z</time>
      </trkpt>
      <trkpt lat="44.467442035675049" lon="11.270084381103516">
        <ele>67</ele>
        <time>2002-10-26T06:57:37Z</time>
      </trkpt>
      <trkpt lat="44.466841220855713" lon="11.269741058349609">
        <ele>69</ele>
        <time>2002-10-26T06:57:57Z</time>
      </trkpt>
      <trkpt lat="44.4661545753479" lon="11.269354820251465">
        <ele>71</ele>
        <time>2002-10-26T06:58:15Z</time>
      </trkpt>
      <trkpt lat="44.465553760528564" lon="11.269011497497559">
        <ele>72</ele>
        <time>2002-10-26T06:58:30Z</time>
      </trkpt>
      <trkpt lat="44.46467399597168" lon="11.268582260236144">
        <ele>72</ele>
        <time>2002-10-26T06:58:52Z</time>
      </trkpt>
      <trkpt lat="44.464588165283203" lon="11.268560886383057">
        <ele>72</ele>
        <time>2002-10-26T06:58:54Z</time>
      </trkpt>
      <trkpt lat="44.463815689086914" lon="11.268088817596436">
        <ele>75</ele>
        <time>2002-10-26T06:59:16Z</time>
      </trkpt>
      <trkpt lat="44.463493824005127" lon="11.267595291137695">
        <ele>76</ele>
        <time>2002-10-26T06:59:31Z</time>
      </trkpt>
      <trkpt lat="44.463300704956055" lon="11.266844272613525">
        <ele>77</ele>
        <time>2002-10-26T06:59:49Z</time>
      </trkpt>
      <trkpt lat="44.463150501251221" lon="11.266436576843262">
        <ele>80</ele>
        <time>2002-10-26T07:00:02Z</time>
      </trkpt>
      <trkpt lat="44.462850093841553" lon="11.266329288482666">
        <ele>83</ele>
        <time>2002-10-26T07:00:18Z</time>
      </trkpt>
      <trkpt lat="44.462528228759766" lon="11.26622200012207">
        <ele>86</ele>
        <time>2002-10-26T07:00:35Z</time>
      </trkpt>
      <trkpt lat="44.462184906005859" lon="11.26598596572876">
        <ele>88</ele>
        <time>2002-10-26T07:00:54Z</time>
      </trkpt>
      <trkpt lat="44.462077617645264" lon="11.265599727630615">
        <ele>90</ele>
        <time>2002-10-26T07:01:09Z</time>
      </trkpt>
      <trkpt lat="44.462206363677979" lon="11.265041828155518">
        <ele>92</ele>
        <time>2002-10-26T07:01:30Z</time>
      </trkpt>
      <trkpt lat="44.462313735857606" lon="11.264462471008301">
        <ele>94</ele>
        <time>2002-10-26T07:01:50Z</time>
      </trkpt>
      <trkpt lat="44.46242094039917" lon="11.263968860730529">
        <ele>96</ele>
        <time>2002-10-26T07:02:09Z</time>
      </trkpt>
      <trkpt lat="44.462249279022217" lon="11.263754367828369">
        <ele>99</ele>
        <time>2002-10-26T07:02:21Z</time>
      </trkpt>
      <trkpt lat="44.461820125579834" lon="11.263625621795654">
        <ele>102</ele>
        <time>2002-10-26T07:02:44Z</time>
      </trkpt>
      <trkpt lat="44.461455261334777" lon="11.263496875762939">
        <ele>103</ele>
        <time>2002-10-26T07:03:02Z</time>
      </trkpt>
      <trkpt lat="44.461112022399902" lon="11.263368129730225">
        <ele>107</ele>
        <time>2002-10-26T07:03:19Z</time>
      </trkpt>
      <trkpt lat="44.461047565564513" lon="11.263089179992676">
        <ele>109</ele>
        <time>2002-10-26T07:03:33Z</time>
      </trkpt>
      <trkpt lat="44.461112022399902" lon="11.262702941894531">
        <ele>112</ele>
        <time>2002-10-26T07:03:48Z</time>
      </trkpt>
      <trkpt lat="44.46117639541626" lon="11.262273788452148">
        <ele>115</ele>
        <time>2002-10-26T07:04:07Z</time>
      </trkpt>
      <trkpt lat="44.461197936907411" lon="11.262252330780029">
        <ele>115</ele>
        <time>2002-10-26T07:04:08Z</time>
      </trkpt>
      <trkpt lat="44.461348140612245" lon="11.261909008026123">
        <ele>119</ele>
        <time>2002-10-26T07:04:27Z</time>
      </trkpt>
      <trkpt lat="44.461541175842285" lon="11.261587059125304">
        <ele>121</ele>
        <time>2002-10-26T07:04:45Z</time>
      </trkpt>
      <trkpt lat="44.461798667907715" lon="11.261222362518311">
        <ele>124</ele>
        <time>2002-10-26T07:05:05Z</time>
      </trkpt>
      <trkpt lat="44.462099075317383" lon="11.260986328125">
        <ele>127</ele>
        <time>2002-10-26T07:05:24Z</time>
      </trkpt>
      <trkpt lat="44.462442398071289" lon="11.261093616485596">
        <ele>130</ele>
        <time>2002-10-26T07:05:42Z</time>
      </trkpt>
      <trkpt lat="44.462764263153076" lon="11.261372566223145">
        <ele>132</ele>
        <time>2002-10-26T07:06:00Z</time>
      </trkpt>
      <trkpt lat="44.463000297546387" lon="11.261458396911621">
        <ele>134</ele>
        <time>2002-10-26T07:06:14Z</time>
      </trkpt>
      <trkpt lat="44.463021839037538" lon="11.261329734697938">
        <ele>136</ele>
        <time>2002-10-26T07:06:19Z</time>
      </trkpt>
      <trkpt lat="44.462764263153076" lon="11.261050701141357">
        <ele>139</ele>
        <time>2002-10-26T07:06:35Z</time>
      </trkpt>
      <trkpt lat="44.46242094039917" lon="11.260664463043213">
        <ele>141</ele>
        <time>2002-10-26T07:06:56Z</time>
      </trkpt>
      <trkpt lat="44.462163364514709" lon="11.260385513305664">
        <ele>142</ele>
        <time>2002-10-26T07:07:13Z</time>
      </trkpt>
      <trkpt lat="44.462034702301025" lon="11.25999927520752">
        <ele>145</ele>
        <time>2002-10-26T07:07:28Z</time>
      </trkpt>
      <trkpt lat="44.461948871612549" lon="11.259419918060303">
        <ele>148</ele>
        <time>2002-10-26T07:07:48Z</time>
      </trkpt>
      <trkpt lat="44.461734294891357" lon="11.259205341339111">
        <ele>152</ele>
        <time>2002-10-26T07:08:01Z</time>
      </trkpt>
      <trkpt lat="44.461348140612245" lon="11.259183883666992">
        <ele>153</ele>
        <time>2002-10-26T07:08:17Z</time>
      </trkpt>
      <trkpt lat="44.460811614990234" lon="11.259183883666992">
        <ele>156</ele>
        <time>2002-10-26T07:08:39Z</time>
      </trkpt>
      <trkpt lat="44.460296630859375" lon="11.259055137634277">
        <ele>157</ele>
        <time>2002-10-26T07:08:58Z</time>
      </trkpt>
      <trkpt lat="44.459867477416992" lon="11.258754730224609">
        <ele>158</ele>
        <time>2002-10-26T07:09:17Z</time>
      </trkpt>
      <trkpt lat="44.459459781646729" lon="11.258389865979552">
        <ele>159</ele>
        <time>2002-10-26T07:09:34Z</time>
      </trkpt>
      <trkpt lat="44.459245204925537" lon="11.257939338684082">
        <ele>163</ele>
        <time>2002-10-26T07:09:51Z</time>
      </trkpt>
      <trkpt lat="44.459116458892822" lon="11.257510185241699">
        <ele>165</ele>
        <time>2002-10-26T07:10:06Z</time>
      </trkpt>
      <trkpt lat="44.459073459729552" lon="11.257381439208984">
        <ele>167</ele>
        <time>2002-10-26T07:10:11Z</time>
      </trkpt>
      <trkpt lat="44.45892333984375" lon="11.256909370422363">
        <ele>170</ele>
        <time>2002-10-26T07:10:28Z</time>
      </trkpt>
      <trkpt lat="44.458730220794678" lon="11.256222724914551">
        <ele>173</ele>
        <time>2002-10-26T07:10:52Z</time>
      </trkpt>
      <trkpt lat="44.458601474761963" lon="11.255729198455811">
        <ele>176</ele>
        <time>2002-10-26T07:11:09Z</time>
      </trkpt>
      <trkpt lat="44.458837509155273" lon="11.25545016489923">
        <ele>177</ele>
        <time>2002-10-26T07:11:23Z</time>
      </trkpt>
      <trkpt lat="44.458901882171631" lon="11.255364418029785">
        <ele>177</ele>
        <time>2002-10-26T07:11:29Z</time>
      </trkpt>
      <trkpt lat="44.45918083190918" lon="11.255064010620117">
        <ele>189</ele>
        <time>2003-03-08T08:27:04Z</time>
      </trkpt>
      <trkpt lat="44.45941686630249" lon="11.254785060882568">
        <ele>191</ele>
        <time>2003-03-08T08:27:20Z</time>
      </trkpt>
      <trkpt lat="44.45963135920465" lon="11.254591941833496">
        <ele>195</ele>
        <time>2003-03-08T08:27:34Z</time>
      </trkpt>
      <trkpt lat="44.459803104400635" lon="11.254377365112305">
        <ele>198</ele>
        <time>2003-03-08T08:27:47Z</time>
      </trkpt>
      <trkpt lat="44.45991039276123" lon="11.253969669342041">
        <ele>201</ele>
        <time>2003-03-08T08:28:05Z</time>
      </trkpt>
      <trkpt lat="44.459953308105469" lon="11.253368938341737">
        <ele>204</ele>
        <time>2003-03-08T08:28:28Z</time>
      </trkpt>
      <trkpt lat="44.459996223449707" lon="11.252703666687012">
        <ele>207</ele>
        <time>2003-03-08T08:28:51Z</time>
      </trkpt>
      <trkpt lat="44.460060596466064" lon="11.252210140228271">
        <ele>210</ele>
        <time>2003-03-08T08:29:08Z</time>
      </trkpt>
      <trkpt lat="44.460146427154541" lon="11.251523494720459">
        <ele>212</ele>
        <time>2003-03-08T08:29:31Z</time>
      </trkpt>
      <trkpt lat="44.460232341662049" lon="11.250944137573242">
        <ele>215</ele>
        <time>2003-03-08T08:29:50Z</time>
      </trkpt>
      <trkpt lat="44.460296630859375" lon="11.250450611114502">
        <ele>217</ele>
        <time>2003-03-08T08:30:07Z</time>
      </trkpt>
      <trkpt lat="44.460318088531494" lon="11.249806880950928">
        <ele>220</ele>
        <time>2003-03-08T08:30:28Z</time>
      </trkpt>
      <trkpt lat="44.460275173187256" lon="11.249163234606385">
        <ele>223</ele>
        <time>2003-03-08T08:30:48Z</time>
      </trkpt>
      <trkpt lat="44.460189258679748" lon="11.248605335131288">
        <ele>226</ele>
        <time>2003-03-08T08:31:06Z</time>
      </trkpt>
      <trkpt lat="44.459974765777588" lon="11.24845496378839">
        <ele>227</ele>
        <time>2003-03-08T08:31:18Z</time>
      </trkpt>
      <trkpt lat="44.459459781646729" lon="11.248347759246826">
        <ele>227</ele>
        <time>2003-03-08T08:31:37Z</time>
      </trkpt>
      <trkpt lat="44.458944797515869" lon="11.24824047088623">
        <ele>230</ele>
        <time>2003-03-08T08:31:58Z</time>
      </trkpt>
      <trkpt lat="44.458537101745605" lon="11.248154640197754">
        <ele>233</ele>
        <time>2003-03-08T08:32:17Z</time>
      </trkpt>
      <trkpt lat="44.458494186401367" lon="11.247875690460205">
        <ele>236</ele>
        <time>2003-03-08T08:32:29Z</time>
      </trkpt>
      <trkpt lat="44.458601474761963" lon="11.247231960296631">
        <ele>237</ele>
        <time>2003-03-08T08:32:49Z</time>
      </trkpt>
      <trkpt lat="44.458665763959289" lon="11.246867179870605">
        <ele>240</ele>
        <time>2003-03-08T08:33:00Z</time>
      </trkpt>
      <trkpt lat="44.458858966827393" lon="11.246287822723389">
        <ele>243</ele>
        <time>2003-03-08T08:33:22Z</time>
      </trkpt>
      <trkpt lat="44.459095001220703" lon="11.245901584625244">
        <ele>246</ele>
        <time>2003-03-08T08:33:40Z</time>
      </trkpt>
      <trkpt lat="44.459288120269775" lon="11.245644092559814">
        <ele>250</ele>
        <time>2003-03-08T08:33:53Z</time>
      </trkpt>
      <trkpt lat="44.459481239318848" lon="11.245322227478027">
        <ele>252</ele>
        <time>2003-03-08T08:34:09Z</time>
      </trkpt>
      <trkpt lat="44.459738731384277" lon="11.244978904724121">
        <ele>256</ele>
        <time>2003-03-08T08:34:28Z</time>
      </trkpt>
      <trkpt lat="44.45991039276123" lon="11.24476432800293">
        <ele>259</ele>
        <time>2003-03-08T08:34:41Z</time>
      </trkpt>
      <trkpt lat="44.460039138793945" lon="11.244528293609619">
        <ele>263</ele>
        <time>2003-03-08T08:34:53Z</time>
      </trkpt>
      <trkpt lat="44.460124969482422" lon="11.244249260053039">
        <ele>265</ele>
        <time>2003-03-08T08:35:08Z</time>
      </trkpt>
      <trkpt lat="44.460189258679748" lon="11.243991935625672">
        <ele>268</ele>
        <time>2003-03-08T08:35:21Z</time>
      </trkpt>
      <trkpt lat="44.460275173187256" lon="11.243648529052734">
        <ele>271</ele>
        <time>2003-03-08T08:35:39Z</time>
      </trkpt>
      <trkpt lat="44.460275173187256" lon="11.243348121643066">
        <ele>274</ele>
        <time>2003-03-08T08:35:54Z</time>
      </trkpt>
      <trkpt lat="44.460275173187256" lon="11.242983341217041">
        <ele>276</ele>
        <time>2003-03-08T08:36:12Z</time>
      </trkpt>
      <trkpt lat="44.460296630859375" lon="11.24276876449585">
        <ele>280</ele>
        <time>2003-03-08T08:36:23Z</time>
      </trkpt>
      <trkpt lat="44.460382461547852" lon="11.242318237200379">
        <ele>282</ele>
        <time>2003-03-08T08:36:44Z</time>
      </trkpt>
      <trkpt lat="44.46042537689209" lon="11.242189407348633">
        <ele>285</ele>
        <time>2003-03-08T08:36:51Z</time>
      </trkpt>
      <trkpt lat="44.460446834564209" lon="11.242103576660156">
        <ele>286</ele>
        <time>2003-03-08T08:36:55Z</time>
      </trkpt>
      <trkpt lat="44.46042537689209" lon="11.241931915283203">
        <ele>289</ele>
        <time>2003-03-08T08:37:04Z</time>
      </trkpt>
      <trkpt lat="44.460275173187256" lon="11.241717338562012">
        <ele>292</ele>
        <time>2003-03-08T08:37:16Z</time>
      </trkpt>
      <trkpt lat="44.460039138793945" lon="11.241438388824463">
        <ele>295</ele>
        <time>2003-03-08T08:37:36Z</time>
      </trkpt>
      <trkpt lat="44.459803104400635" lon="11.241223812103271">
        <ele>296</ele>
        <time>2003-03-08T08:37:54Z</time>
      </trkpt>
      <trkpt lat="44.459524238482118" lon="11.240987777709961">
        <ele>297</ele>
        <time>2003-03-08T08:38:14Z</time>
      </trkpt>
      <trkpt lat="44.459374034777284" lon="11.240859031677246">
        <ele>299</ele>
        <time>2003-03-08T08:38:31Z</time>
      </trkpt>
      <trkpt lat="44.459331035614014" lon="11.240859031677246">
        <ele>300</ele>
        <time>2003-03-08T08:38:34Z</time>
      </trkpt>
      <trkpt lat="44.459395408630371" lon="11.240386962890625">
        <ele>302</ele>
        <time>2003-03-08T08:38:50Z</time>
      </trkpt>
      <trkpt lat="44.459459781646729" lon="11.240193760022521">
        <ele>305</ele>
        <time>2003-03-08T08:39:01Z</time>
      </trkpt>
      <trkpt lat="44.459545612335205" lon="11.239914894104004">
        <ele>308</ele>
        <time>2003-03-08T08:39:18Z</time>
      </trkpt>
      <trkpt lat="44.459588527679443" lon="11.239807605743408">
        <ele>310</ele>
        <time>2003-03-08T08:39:25Z</time>
      </trkpt>
      <trkpt lat="44.45967435836792" lon="11.239657402038574">
        <ele>314</ele>
        <time>2003-03-08T08:39:37Z</time>
      </trkpt>
      <trkpt lat="44.45967435836792" lon="11.239635860547423">
        <ele>314</ele>
        <time>2003-03-08T08:39:38Z</time>
      </trkpt>
      <trkpt lat="44.459888935089111" lon="11.239356994628906">
        <ele>317</ele>
        <time>2003-03-08T08:40:01Z</time>
      </trkpt>
      <trkpt lat="44.460103511810303" lon="11.239120960235596">
        <ele>321</ele>
        <time>2003-03-08T08:40:21Z</time>
      </trkpt>
      <trkpt lat="44.460253715515137" lon="11.239013671875">
        <ele>324</ele>
        <time>2003-03-08T08:40:34Z</time>
      </trkpt>
      <trkpt lat="44.460382461547852" lon="11.238820636644959">
        <ele>326</ele>
        <time>2003-03-08T08:40:48Z</time>
      </trkpt>
      <trkpt lat="44.460339462384582" lon="11.238670265302062">
        <ele>329</ele>
        <time>2003-03-08T08:40:58Z</time>
      </trkpt>
      <trkpt lat="44.460189258679748" lon="11.238842010498047">
        <ele>330</ele>
        <time>2003-03-08T08:41:13Z</time>
      </trkpt>
      <trkpt lat="44.45991039276123" lon="11.239077961072326">
        <ele>332</ele>
        <time>2003-03-08T08:41:35Z</time>
      </trkpt>
      <trkpt lat="44.459738731384277" lon="11.239163875579834">
        <ele>336</ele>
        <time>2003-03-08T08:41:48Z</time>
      </trkpt>
      <trkpt lat="44.459545612335205" lon="11.23922816477716">
        <ele>339</ele>
        <time>2003-03-08T08:42:02Z</time>
      </trkpt>
      <trkpt lat="44.45941686630249" lon="11.239356994628906">
        <ele>342</ele>
        <time>2003-03-08T08:42:16Z</time>
      </trkpt>
      <trkpt lat="44.459374034777284" lon="11.239378536120057">
        <ele>343</ele>
        <time>2003-03-08T08:42:20Z</time>
      </trkpt>
      <trkpt lat="44.459245204925537" lon="11.239399909973145">
        <ele>346</ele>
        <time>2003-03-08T08:42:33Z</time>
      </trkpt>
      <trkpt lat="44.459137916564941" lon="11.239378536120057">
        <ele>346</ele>
        <time>2003-03-08T08:42:40Z</time>
      </trkpt>
      <trkpt lat="44.459137916564941" lon="11.239249706268311">
        <ele>348</ele>
        <time>2003-03-08T08:42:47Z</time>
      </trkpt>
      <trkpt lat="44.459309577941895" lon="11.239142417907715">
        <ele>351</ele>
        <time>2003-03-08T08:43:00Z</time>
      </trkpt>
      <trkpt lat="44.459331035614014" lon="11.239077961072326">
        <ele>352</ele>
        <time>2003-03-08T08:43:05Z</time>
      </trkpt>
      <trkpt lat="44.459245204925537" lon="11.238949298858643">
        <ele>354</ele>
        <time>2003-03-08T08:43:12Z</time>
      </trkpt>
      <trkpt lat="44.459245204925537" lon="11.238863468170166">
        <ele>354</ele>
        <time>2003-03-08T08:43:16Z</time>
      </trkpt>
      <trkpt lat="44.459266662597656" lon="11.238520061597228">
        <ele>359</ele>
        <time>2003-03-08T08:43:35Z</time>
      </trkpt>
      <trkpt lat="44.459309577941895" lon="11.238262737169862">
        <ele>362</ele>
        <time>2003-03-08T08:43:49Z</time>
      </trkpt>
      <trkpt lat="44.459331035614014" lon="11.238241195678711">
        <ele>362</ele>
        <time>2003-03-08T08:43:50Z</time>
      </trkpt>
      <trkpt lat="44.459438323974609" lon="11.238241195678711">
        <ele>363</ele>
        <time>2003-03-08T08:43:58Z</time>
      </trkpt>
      <trkpt lat="44.45963135920465" lon="11.238048076629639">
        <ele>363</ele>
        <time>2003-03-08T08:44:16Z</time>
      </trkpt>
      <trkpt lat="44.459567070007324" lon="11.237576007843018">
        <ele>364</ele>
        <time>2003-03-08T08:44:35Z</time>
      </trkpt>
      <trkpt lat="44.459524238482118" lon="11.237168312072754">
        <ele>365</ele>
        <time>2003-03-08T08:44:53Z</time>
      </trkpt>
      <trkpt lat="44.459545612335205" lon="11.236846363171935">
        <ele>363</ele>
        <time>2003-03-08T08:45:12Z</time>
      </trkpt>
      <trkpt lat="44.459545612335205" lon="11.236674785614014">
        <ele>360</ele>
        <time>2003-03-08T08:45:22Z</time>
      </trkpt>
      <trkpt lat="44.459567070007324" lon="11.236503124237061">
        <ele>357</ele>
        <time>2003-03-08T08:45:32Z</time>
      </trkpt>
      <trkpt lat="44.459567070007324" lon="11.236202716827393">
        <ele>354</ele>
        <time>2003-03-08T08:45:48Z</time>
      </trkpt>
      <trkpt lat="44.459524238482118" lon="11.235365867614746">
        <ele>354</ele>
        <time>2003-03-08T08:46:15Z</time>
      </trkpt>
      <trkpt lat="44.459459781646729" lon="11.23450756072998">
        <ele>351</ele>
        <time>2003-03-08T08:46:33Z</time>
      </trkpt>
      <trkpt lat="44.459309577941895" lon="11.233992576599121">
        <ele>351</ele>
        <time>2003-03-08T08:46:45Z</time>
      </trkpt>
      <trkpt lat="44.459009170532227" lon="11.233584880828857">
        <ele>349</ele>
        <time>2002-10-26T07:40:18Z</time>
      </trkpt>
      <trkpt lat="44.458987712860107" lon="11.233541965484619">
        <ele>350</ele>
        <time>2002-10-26T07:40:24Z</time>
      </trkpt>
      <trkpt lat="44.458880424499512" lon="11.233434677124023">
        <ele>351</ele>
        <time>2002-10-26T07:40:37Z</time>
      </trkpt>
      <trkpt lat="44.458837509155273" lon="11.233370304107666">
        <ele>351</ele>
        <time>2002-10-26T07:40:41Z</time>
      </trkpt>
      <trkpt lat="44.458730220794678" lon="11.233241641893983">
        <ele>354</ele>
        <time>2002-10-26T07:40:52Z</time>
      </trkpt>
      <trkpt lat="44.458622932434082" lon="11.233091438189149">
        <ele>357</ele>
        <time>2002-10-26T07:41:01Z</time>
      </trkpt>
      <trkpt lat="44.458537101745605" lon="11.232748031616211">
        <ele>360</ele>
        <time>2002-10-26T07:41:17Z</time>
      </trkpt>
      <trkpt lat="44.458558559417725" lon="11.232662200927734">
        <ele>360</ele>
        <time>2002-10-26T07:41:21Z</time>
      </trkpt>
      <trkpt lat="44.458644390106201" lon="11.232340335845947">
        <ele>362</ele>
        <time>2002-10-26T07:41:38Z</time>
      </trkpt>
      <trkpt lat="44.458751678466797" lon="11.231868267059326">
        <ele>365</ele>
        <time>2002-10-26T07:42:05Z</time>
      </trkpt>
      <trkpt lat="44.458858966827393" lon="11.231224536895752">
        <ele>368</ele>
        <time>2002-10-26T07:42:34Z</time>
      </trkpt>
      <trkpt lat="44.458837509155273" lon="11.230795383453369">
        <ele>372</ele>
        <time>2002-10-26T07:42:53Z</time>
      </trkpt>
      <trkpt lat="44.458837509155273" lon="11.230430603027344">
        <ele>375</ele>
        <time>2002-10-26T07:43:08Z</time>
      </trkpt>
      <trkpt lat="44.458816135302186" lon="11.23002290725708">
        <ele>378</ele>
        <time>2002-10-26T07:43:25Z</time>
      </trkpt>
      <trkpt lat="44.458816135302186" lon="11.229615211486816">
        <ele>382</ele>
        <time>2002-10-26T07:43:44Z</time>
      </trkpt>
      <trkpt lat="44.458987712860107" lon="11.229250431060791">
        <ele>383</ele>
        <time>2002-10-26T07:44:02Z</time>
      </trkpt>
      <trkpt lat="44.459266662597656" lon="11.228821277618408">
        <ele>384</ele>
        <time>2002-10-26T07:44:24Z</time>
      </trkpt>
      <trkpt lat="44.459395408630371" lon="11.228220462799072">
        <ele>387</ele>
        <time>2002-10-26T07:44:48Z</time>
      </trkpt>
      <trkpt lat="44.459309577941895" lon="11.227769935503602">
        <ele>390</ele>
        <time>2002-10-26T07:45:05Z</time>
      </trkpt>
      <trkpt lat="44.459245204925537" lon="11.227340698242188">
        <ele>392</ele>
        <time>2002-10-26T07:45:21Z</time>
      </trkpt>
      <trkpt lat="44.45896633900702" lon="11.227233409881592">
        <ele>396</ele>
        <time>2002-10-26T07:45:36Z</time>
      </trkpt>
      <trkpt lat="44.458837509155273" lon="11.227212036028504">
        <ele>399</ele>
        <time>2002-10-26T07:45:43Z</time>
      </trkpt>
      <trkpt lat="44.458601474761963" lon="11.227061664685607">
        <ele>402</ele>
        <time>2002-10-26T07:45:58Z</time>
      </trkpt>
      <trkpt lat="44.458451271057129" lon="11.226868629455566">
        <ele>405</ele>
        <time>2002-10-26T07:46:11Z</time>
      </trkpt>
      <trkpt lat="44.458279609680176" lon="11.226503765210509">
        <ele>409</ele>
        <time>2002-10-26T07:46:28Z</time>
      </trkpt>
      <trkpt lat="44.458065032958984" lon="11.226117610931396">
        <ele>411</ele>
        <time>2002-10-26T07:46:47Z</time>
      </trkpt>
      <trkpt lat="44.457743167877197" lon="11.225903034210205">
        <ele>413</ele>
        <time>2002-10-26T07:47:06Z</time>
      </trkpt>
      <trkpt lat="44.457507133483887" lon="11.225817203521729">
        <ele>417</ele>
        <time>2002-10-26T07:47:20Z</time>
      </trkpt>
      <trkpt lat="44.457507133483887" lon="11.225430965423584">
        <ele>416</ele>
        <time>2002-10-26T07:47:36Z</time>
      </trkpt>
      <trkpt lat="44.457549965009093" lon="11.224915981292725">
        <ele>414</ele>
        <time>2002-10-26T07:47:50Z</time>
      </trkpt>
      <trkpt lat="44.457314014434814" lon="11.224186420440674">
        <ele>413</ele>
        <time>2002-10-26T07:48:07Z</time>
      </trkpt>
      <trkpt lat="44.456820487976074" lon="11.223628520965576">
        <ele>414</ele>
        <time>2002-10-26T07:48:29Z</time>
      </trkpt>
      <trkpt lat="44.456412792205811" lon="11.223392486572266">
        <ele>415</ele>
        <time>2002-10-26T07:48:47Z</time>
      </trkpt>
      <trkpt lat="44.456069469451904" lon="11.223199367523193">
        <ele>419</ele>
        <time>2002-10-26T07:49:03Z</time>
      </trkpt>
      <trkpt lat="44.455940723419189" lon="11.223134994506836">
        <ele>419</ele>
        <time>2002-10-26T07:51:36Z</time>
      </trkpt>
      <trkpt lat="44.455833435058594" lon="11.222920417785645">
        <ele>418</ele>
        <time>2002-10-26T07:51:49Z</time>
      </trkpt>
      <trkpt lat="44.455790519714355" lon="11.22279167175293">
        <ele>415</ele>
        <time>2002-10-26T07:51:54Z</time>
      </trkpt>
      <trkpt lat="44.455790519714355" lon="11.222705841064453">
        <ele>412</ele>
        <time>2002-10-26T07:51:57Z</time>
      </trkpt>
      <trkpt lat="44.455790519714355" lon="11.222684383392334">
        <ele>412</ele>
        <time>2002-10-26T07:51:58Z</time>
      </trkpt>
      <trkpt lat="44.455854892730713" lon="11.2225341796875">
        <ele>410</ele>
        <time>2002-10-26T07:52:08Z</time>
      </trkpt>
      <trkpt lat="44.455790519714355" lon="11.222469806671143">
        <ele>407</ele>
        <time>2002-10-26T07:52:13Z</time>
      </trkpt>
      <trkpt lat="44.455769062042236" lon="11.222448265179992">
        <ele>406</ele>
        <time>2002-10-26T07:52:14Z</time>
      </trkpt>
      <trkpt lat="44.455747604370117" lon="11.222426891326904">
        <ele>406</ele>
        <time>2002-10-26T07:52:16Z</time>
      </trkpt>
      <trkpt lat="44.455704689025879" lon="11.222426891326904">
        <ele>403</ele>
        <time>2002-10-26T07:52:19Z</time>
      </trkpt>
      <trkpt lat="44.455575859174132" lon="11.222405433654785">
        <ele>401</ele>
        <time>2002-10-26T07:52:29Z</time>
      </trkpt>
      <trkpt lat="44.455511569976807" lon="11.222405433654785">
        <ele>397</ele>
        <time>2002-10-26T07:52:35Z</time>
      </trkpt>
      <trkpt lat="44.455490112304687" lon="11.222405433654785">
        <ele>397</ele>
        <time>2002-10-26T07:52:36Z</time>
      </trkpt>
      <trkpt lat="44.45542573928833" lon="11.222448265179992">
        <ele>394</ele>
        <time>2002-10-26T07:52:42Z</time>
      </trkpt>
      <trkpt lat="44.455254077911377" lon="11.222598636522889">
        <ele>387</ele>
        <time>2002-10-26T07:55:15Z</time>
      </trkpt>
      <trkpt lat="44.455254077911377" lon="11.222062110900879">
        <ele>386</ele>
        <time>2002-10-26T07:55:29Z</time>
      </trkpt>
      <trkpt lat="44.455254077911377" lon="11.221911907196045">
        <ele>385</ele>
        <time>2002-10-26T07:55:31Z</time>
      </trkpt>
      <trkpt lat="44.455103874206543" lon="11.221439838409424">
        <ele>381</ele>
        <time>2002-10-26T07:55:37Z</time>
      </trkpt>
      <trkpt lat="44.454953670501709" lon="11.221160888671875">
        <ele>378</ele>
        <time>2002-10-26T07:55:41Z</time>
      </trkpt>
      <trkpt lat="44.454739093780518" lon="11.220924938097596">
        <ele>375</ele>
        <time>2002-10-26T07:55:45Z</time>
      </trkpt>
      <trkpt lat="44.45467472076416" lon="11.220860481262207">
        <ele>374</ele>
        <time>2002-10-26T07:55:46Z</time>
      </trkpt>
      <trkpt lat="44.45418119430542" lon="11.220774734392762">
        <ele>369</ele>
        <time>2002-10-26T07:55:52Z</time>
      </trkpt>
      <trkpt lat="44.453988075256348" lon="11.220774734392762">
        <ele>367</ele>
        <time>2002-10-26T07:55:54Z</time>
      </trkpt>
      <trkpt lat="44.453773498535156" lon="11.220710277557373">
        <ele>365</ele>
        <time>2002-10-26T07:55:56Z</time>
      </trkpt>
      <trkpt lat="44.453408718109131" lon="11.220452785491943">
        <ele>363</ele>
        <time>2002-10-26T07:56:00Z</time>
      </trkpt>
      <trkpt lat="44.453151226043701" lon="11.220324039459229">
        <ele>362</ele>
        <time>2002-10-26T07:56:03Z</time>
      </trkpt>
      <trkpt lat="44.452958106994629" lon="11.220324039459229">
        <ele>363</ele>
        <time>2002-10-26T07:56:06Z</time>
      </trkpt>
      <trkpt lat="44.452250003814697" lon="11.219894886016846">
        <ele>360</ele>
        <time>2002-10-26T07:56:20Z</time>
      </trkpt>
      <trkpt lat="44.451777935028076" lon="11.219487190246582">
        <ele>360</ele>
        <time>2002-10-26T07:56:33Z</time>
      </trkpt>
      <trkpt lat="44.451134204864502" lon="11.219186782836914">
        <ele>363</ele>
        <time>2002-10-26T07:56:51Z</time>
      </trkpt>
      <trkpt lat="44.450533390045166" lon="11.218907833099365">
        <ele>363</ele>
        <time>2002-10-26T07:57:07Z</time>
      </trkpt>
      <trkpt lat="44.449825286865234" lon="11.218135440722108">
        <ele>361</ele>
        <time>2002-10-26T07:57:26Z</time>
      </trkpt>
      <trkpt lat="44.449653625488281" lon="11.217813491821289">
        <ele>358</ele>
        <time>2002-10-26T07:57:31Z</time>
      </trkpt>
      <trkpt lat="44.449331760406494" lon="11.217620372772217">
        <ele>357</ele>
        <time>2002-10-26T07:57:36Z</time>
      </trkpt>
      <trkpt lat="44.448366165161133" lon="11.217362880706787">
        <ele>354</ele>
        <time>2002-10-26T07:57:50Z</time>
      </trkpt>
      <trkpt lat="44.448301792144775" lon="11.217319965362549">
        <ele>353</ele>
        <time>2002-10-26T07:57:51Z</time>
      </trkpt>
      <trkpt lat="44.448151588439941" lon="11.217255592346191">
        <ele>352</ele>
        <time>2002-10-26T07:57:53Z</time>
      </trkpt>
      <trkpt lat="44.447915637865663" lon="11.217148303985596">
        <ele>351</ele>
        <time>2002-10-26T07:57:56Z</time>
      </trkpt>
      <trkpt lat="44.44694995880127" lon="11.216568863019347">
        <ele>347</ele>
        <time>1989-12-31T00:00:00Z</time>
      </trkpt>
      <trkpt lat="44.446735382080078" lon="11.216440200805664">
        <ele>347</ele>
        <time>2002-10-26T07:58:11Z</time>
      </trkpt>
      <trkpt lat="44.446778297424316" lon="11.216354370117188">
        <ele>348</ele>
        <time>2002-11-30T09:06:39Z</time>
      </trkpt>
      <trkpt lat="44.446392059326172" lon="11.215946674346924">
        <ele>349</ele>
        <time>2002-11-30T09:06:52Z</time>
      </trkpt>
      <trkpt lat="44.446370601654053" lon="11.215925216674805">
        <ele>349</ele>
        <time>2002-11-30T09:06:54Z</time>
      </trkpt>
      <trkpt lat="44.446370601654053" lon="11.215882301330566">
        <ele>350</ele>
        <time>2002-11-30T09:06:56Z</time>
      </trkpt>
      <trkpt lat="44.4461989402771" lon="11.215817928314209">
        <ele>350</ele>
        <time>2002-11-30T09:07:07Z</time>
      </trkpt>
      <trkpt lat="44.445748329162598" lon="11.215624809265137">
        <ele>349</ele>
        <time>2002-11-30T09:07:23Z</time>
      </trkpt>
      <trkpt lat="44.445104598999023" lon="11.214959621429443">
        <ele>349</ele>
        <time>2002-11-30T09:07:45Z</time>
      </trkpt>
      <trkpt lat="44.445147514343262" lon="11.214938163757324">
        <ele>350</ele>
        <time>2003-03-08T09:26:10Z</time>
      </trkpt>
      <trkpt lat="44.445126140490174" lon="11.214895164594054">
        <ele>350</ele>
        <time>2003-03-08T09:26:35Z</time>
      </trkpt>
      <trkpt lat="44.445104598999023" lon="11.214830875396729">
        <ele>350</ele>
        <time>2003-03-08T09:26:39Z</time>
      </trkpt>
      <trkpt lat="44.444868564605713" lon="11.214423179626465">
        <ele>346</ele>
        <time>2003-03-08T09:26:51Z</time>
      </trkpt>
      <trkpt lat="44.444718360900879" lon="11.21429443359375">
        <ele>345</ele>
        <time>2003-03-08T09:26:55Z</time>
      </trkpt>
      <trkpt lat="44.444246292114258" lon="11.213951110839844">
        <ele>342</ele>
        <time>2003-03-08T09:27:05Z</time>
      </trkpt>
      <trkpt lat="44.444010341539979" lon="11.213693618774414">
        <ele>339</ele>
        <time>2003-03-08T09:27:10Z</time>
      </trkpt>
      <trkpt lat="44.443860137835145" lon="11.213500499725342">
        <ele>338</ele>
        <time>2003-03-08T09:27:13Z</time>
      </trkpt>
      <trkpt lat="44.443645477294922" lon="11.21279239654541">
        <ele>334</ele>
        <time>2003-03-08T09:27:21Z</time>
      </trkpt>
      <trkpt lat="44.443581104278564" lon="11.212642192840576">
        <ele>334</ele>
        <time>2003-03-08T09:27:23Z</time>
      </trkpt>
      <trkpt lat="44.443495273590088" lon="11.212470531463623">
        <ele>332</ele>
        <time>2003-03-08T09:27:25Z</time>
      </trkpt>
      <trkpt lat="44.443495273590088" lon="11.212019920349121">
        <ele>329</ele>
        <time>2003-03-08T09:27:30Z</time>
      </trkpt>
      <trkpt lat="44.443752765655518" lon="11.21079683303833">
        <ele>326</ele>
        <time>2003-03-08T09:27:44Z</time>
      </trkpt>
      <trkpt lat="44.444010341539979" lon="11.21004581451416">
        <ele>323</ele>
        <time>2003-03-08T09:27:55Z</time>
      </trkpt>
      <trkpt lat="44.444031715393066" lon="11.209981441497803">
        <ele>323</ele>
        <time>2003-03-08T09:27:56Z</time>
      </trkpt>
      <trkpt lat="44.444139003753662" lon="11.209766864776611">
        <ele>321</ele>
        <time>2003-03-08T09:27:59Z</time>
      </trkpt>
      <trkpt lat="44.444139003753662" lon="11.209423458203673">
        <ele>319</ele>
        <time>2003-03-08T09:28:03Z</time>
      </trkpt>
      <trkpt lat="44.444139003753662" lon="11.209101676940918">
        <ele>318</ele>
        <time>2003-03-08T09:28:07Z</time>
      </trkpt>
      <trkpt lat="44.444289207458496" lon="11.20880126953125">
        <ele>317</ele>
        <time>2003-03-08T09:28:12Z</time>
      </trkpt>
      <trkpt lat="44.444632530212402" lon="11.208565235137939">
        <ele>315</ele>
        <time>2003-03-08T09:28:20Z</time>
      </trkpt>
      <trkpt lat="44.444782733917236" lon="11.208457862958312">
        <ele>312</ele>
        <time>2003-03-08T09:28:23Z</time>
      </trkpt>
      <trkpt lat="44.444890022277832" lon="11.208372116088867">
        <ele>309</ele>
        <time>2003-03-08T09:28:25Z</time>
      </trkpt>
      <trkpt lat="44.445083141326904" lon="11.208221912384033">
        <ele>306</ele>
        <time>2003-03-08T09:28:28Z</time>
      </trkpt>
      <trkpt lat="44.445276260375977" lon="11.208093166351318">
        <ele>302</ele>
        <time>2003-03-08T09:28:31Z</time>
      </trkpt>
      <trkpt lat="44.445405006408691" lon="11.208028793334961">
        <ele>301</ele>
        <time>2003-03-08T09:28:33Z</time>
      </trkpt>
      <trkpt lat="44.445662498474121" lon="11.207878589630127">
        <ele>303</ele>
        <time>2003-03-08T09:28:40Z</time>
      </trkpt>
      <trkpt lat="44.445898532867432" lon="11.207664012908936">
        <ele>306</ele>
        <time>2003-03-08T09:28:55Z</time>
      </trkpt>
      <trkpt lat="44.445935832336545" lon="11.207572482526302">
        <ele>310</ele>
        <time>2004-12-18T09:18:21Z</time>
      </trkpt>
      <trkpt lat="44.446308659389615" lon="11.207274841144681">
        <ele>310</ele>
        <time>2004-12-18T09:18:40Z</time>
      </trkpt>
      <trkpt lat="44.446327434852719" lon="11.207156740128994">
        <ele>311</ele>
        <time>2004-12-18T09:18:42Z</time>
      </trkpt>
      <trkpt lat="44.446418629959226" lon="11.207014583051205">
        <ele>312</ele>
        <time>2004-12-18T09:18:45Z</time>
      </trkpt>
      <trkpt lat="44.4464320410043" lon="11.20687510818243">
        <ele>312</ele>
        <time>2004-12-18T09:18:50Z</time>
      </trkpt>
      <trkpt lat="44.446458863094449" lon="11.206829510629177">
        <ele>312</ele>
        <time>2004-12-18T09:18:52Z</time>
      </trkpt>
      <trkpt lat="44.446584926918149" lon="11.206805370748043">
        <ele>312</ele>
        <time>2004-12-18T09:18:58Z</time>
      </trkpt>
      <trkpt lat="44.447024809196591" lon="11.206770502030849">
        <ele>312</ele>
        <time>2004-12-18T09:19:17Z</time>
      </trkpt>
      <trkpt lat="44.447081135585904" lon="11.206719540059566">
        <ele>313</ele>
        <time>2004-12-18T09:19:21Z</time>
      </trkpt>
      <trkpt lat="44.447121368721128" lon="11.206698082387447">
        <ele>313</ele>
        <time>2004-12-18T09:19:23Z</time>
      </trkpt>
      <trkpt lat="44.447234021499753" lon="11.206657765433192">
        <ele>313</ele>
        <time>2004-12-18T09:19:27Z</time>
      </trkpt>
      <trkpt lat="44.447255562990904" lon="11.20665717869997">
        <ele>313</ele>
        <time>2004-12-18T09:19:28Z</time>
      </trkpt>
      <trkpt lat="44.447277104482055" lon="11.206659860908985">
        <ele>313</ele>
        <time>2004-12-18T09:19:29Z</time>
      </trkpt>
      <trkpt lat="44.447328066453338" lon="11.206662459298968">
        <ele>313</ele>
        <time>2004-12-18T09:19:31Z</time>
      </trkpt>
      <trkpt lat="44.447429990395904" lon="11.206616861745715">
        <ele>313</ele>
        <time>2004-12-18T09:19:39Z</time>
      </trkpt>
      <trkpt lat="44.447459494695067" lon="11.206603534519672">
        <ele>313</ele>
        <time>2004-12-18T09:19:41Z</time>
      </trkpt>
      <trkpt lat="44.447746491059661" lon="11.206206567585468">
        <ele>314</ele>
        <time>2004-12-18T09:20:02Z</time>
      </trkpt>
      <trkpt lat="44.447759902104735" lon="11.20617438107729">
        <ele>314</ele>
        <time>2004-12-18T09:20:04Z</time>
      </trkpt>
      <trkpt lat="44.447808265686035" lon="11.206183433532715">
        <ele>304</ele>
        <time>2003-03-08T09:31:40Z</time>
      </trkpt>
      <trkpt lat="44.447829723358154" lon="11.205453872680664">
        <ele>305</ele>
        <time>2003-03-08T09:32:03Z</time>
      </trkpt>
      <trkpt lat="44.448108673095703" lon="11.2050461769104">
        <ele>305</ele>
        <time>2003-03-08T09:32:21Z</time>
      </trkpt>
      <trkpt lat="44.448280334472656" lon="11.20485314168036">
        <ele>306</ele>
        <time>2003-03-08T09:32:38Z</time>
      </trkpt>
      <trkpt lat="44.448323165997863" lon="11.204788684844971">
        <ele>306</ele>
        <time>2003-03-08T09:32:45Z</time>
      </trkpt>
      <trkpt lat="44.44843053817749" lon="11.20425215922296">
        <ele>303</ele>
        <time>2003-03-08T09:33:03Z</time>
      </trkpt>
      <trkpt lat="44.44843053817749" lon="11.204187870025635">
        <ele>302</ele>
        <time>2003-03-08T09:33:05Z</time>
      </trkpt>
      <trkpt lat="44.448409080505371" lon="11.203908920288086">
        <ele>299</ele>
        <time>2003-03-08T09:33:12Z</time>
      </trkpt>
      <trkpt lat="44.448409080505371" lon="11.20380163192749">
        <ele>297</ele>
        <time>2003-03-08T09:33:15Z</time>
      </trkpt>
      <trkpt lat="44.44843053817749" lon="11.203651428222656">
        <ele>294</ele>
        <time>2003-03-08T09:33:19Z</time>
      </trkpt>
      <trkpt lat="44.44843053817749" lon="11.203608512878418">
        <ele>294</ele>
        <time>2003-03-08T09:33:20Z</time>
      </trkpt>
      <trkpt lat="44.448409080505371" lon="11.202900409698486">
        <ele>292</ele>
        <time>2003-03-08T09:33:35Z</time>
      </trkpt>
      <trkpt lat="44.448237419128418" lon="11.20255708694458">
        <ele>290</ele>
        <time>2003-03-08T09:33:45Z</time>
      </trkpt>
      <trkpt lat="44.448237419128418" lon="11.202471340075135">
        <ele>290</ele>
        <time>2003-03-08T09:33:48Z</time>
      </trkpt>
      <trkpt lat="44.448108673095703" lon="11.20229959487915">
        <ele>287</ele>
        <time>2003-03-08T09:33:53Z</time>
      </trkpt>
      <trkpt lat="44.447979927062988" lon="11.202170765027404">
        <ele>284</ele>
        <time>2003-03-08T09:33:56Z</time>
      </trkpt>
      <trkpt lat="44.447958469390869" lon="11.202127933502197">
        <ele>284</ele>
        <time>2003-03-08T09:33:57Z</time>
      </trkpt>
      <trkpt lat="44.447915637865663" lon="11.202085018157959">
        <ele>283</ele>
        <time>2003-03-08T09:33:58Z</time>
      </trkpt>
      <trkpt lat="44.447894096374512" lon="11.20202056132257">
        <ele>282</ele>
        <time>2003-03-08T09:34:00Z</time>
      </trkpt>
      <trkpt lat="44.447786808013916" lon="11.20180606842041">
        <ele>279</ele>
        <time>2003-03-08T09:34:08Z</time>
      </trkpt>
      <trkpt lat="44.447765434160829" lon="11.201763236895204">
        <ele>278</ele>
        <time>2003-03-08T09:34:52Z</time>
      </trkpt>
      <trkpt lat="44.447700977325439" lon="11.201677322387695">
        <ele>276</ele>
        <time>2003-03-08T09:34:56Z</time>
      </trkpt>
      <trkpt lat="44.447464859113097" lon="11.201441287994385">
        <ele>272</ele>
        <time>2003-03-08T09:35:05Z</time>
      </trkpt>
      <trkpt lat="44.44744348526001" lon="11.201419830322266">
        <ele>272</ele>
        <time>2003-03-08T09:35:06Z</time>
      </trkpt>
      <trkpt lat="44.447250366210937" lon="11.201226711273193">
        <ele>269</ele>
        <time>2003-03-08T09:35:19Z</time>
      </trkpt>
      <trkpt lat="44.447100162506104" lon="11.201076507568359">
        <ele>265</ele>
        <time>2003-03-08T09:35:29Z</time>
      </trkpt>
      <trkpt lat="44.447035789489746" lon="11.201033592224121">
        <ele>263</ele>
        <time>2003-03-08T09:35:35Z</time>
      </trkpt>
      <trkpt lat="44.446906959638" lon="11.200926303863525">
        <ele>259</ele>
        <time>2003-03-08T09:35:44Z</time>
      </trkpt>
      <trkpt lat="44.446799838915467" lon="11.200840473175049">
        <ele>255</ele>
        <time>2003-03-08T09:35:54Z</time>
      </trkpt>
      <trkpt lat="44.446713924407959" lon="11.20081901550293">
        <ele>251</ele>
        <time>2003-03-08T09:36:01Z</time>
      </trkpt>
      <trkpt lat="44.446671009063721" lon="11.200797641649842">
        <ele>250</ele>
        <time>2003-03-08T09:36:03Z</time>
      </trkpt>
      <trkpt lat="44.446628093719482" lon="11.200797641649842">
        <ele>249</ele>
        <time>2003-03-08T09:36:06Z</time>
      </trkpt>
      <trkpt lat="44.446542263031006" lon="11.200797641649842">
        <ele>248</ele>
        <time>2003-03-08T09:36:26Z</time>
      </trkpt>
      <trkpt lat="44.446520805358887" lon="11.200840473175049">
        <ele>244</ele>
        <time>2003-03-08T09:37:24Z</time>
      </trkpt>
      <trkpt lat="44.446499263867736" lon="11.200861930847168">
        <ele>243</ele>
        <time>2003-03-08T09:37:26Z</time>
      </trkpt>
      <trkpt lat="44.446585178375244" lon="11.200990676879883">
        <ele>239</ele>
        <time>2003-03-08T09:37:37Z</time>
      </trkpt>
      <trkpt lat="44.446606636047363" lon="11.201076507568359">
        <ele>238</ele>
        <time>2003-03-08T09:37:41Z</time>
      </trkpt>
      <trkpt lat="44.446606636047363" lon="11.201162338256836">
        <ele>234</ele>
        <time>2003-03-08T09:37:48Z</time>
      </trkpt>
      <trkpt lat="44.446628093719482" lon="11.201226711273193">
        <ele>234</ele>
        <time>2003-03-08T09:38:55Z</time>
      </trkpt>
      <trkpt lat="44.446628093719482" lon="11.201291084289551">
        <ele>229</ele>
        <time>2003-03-08T09:38:58Z</time>
      </trkpt>
      <trkpt lat="44.446628093719482" lon="11.201312458142638">
        <ele>227</ele>
        <time>2003-03-08T09:39:01Z</time>
      </trkpt>
      <trkpt lat="44.446563720703125" lon="11.201398372650146">
        <ele>225</ele>
        <time>2003-03-08T09:39:38Z</time>
      </trkpt>
      <trkpt lat="44.446520805358887" lon="11.20154857635498">
        <ele>224</ele>
        <time>2003-03-08T09:40:11Z</time>
      </trkpt>
      <trkpt lat="44.446392059326172" lon="11.201612865552306">
        <ele>218</ele>
        <time>2003-03-08T09:40:14Z</time>
      </trkpt>
      <trkpt lat="44.44617748260498" lon="11.201634407043457">
        <ele>211</ele>
        <time>2003-03-08T09:40:17Z</time>
      </trkpt>
      <trkpt lat="44.445984363555908" lon="11.201612865552306">
        <ele>205</ele>
        <time>2003-03-08T09:40:19Z</time>
      </trkpt>
      <trkpt lat="44.445877075195313" lon="11.201634407043457">
        <ele>201</ele>
        <time>2003-03-08T09:40:21Z</time>
      </trkpt>
      <trkpt lat="44.445855617523193" lon="11.201763236895204">
        <ele>197</ele>
        <time>2003-03-08T09:40:24Z</time>
      </trkpt>
      <trkpt lat="44.445898532867432" lon="11.201848983764648">
        <ele>196</ele>
        <time>2003-03-08T09:40:27Z</time>
      </trkpt>
      <trkpt lat="44.446091735735536" lon="11.20202056132257">
        <ele>195</ele>
        <time>2003-03-08T09:40:43Z</time>
      </trkpt>
      <trkpt lat="44.445984363555908" lon="11.202127933502197">
        <ele>189</ele>
        <time>2003-02-15T09:23:13Z</time>
      </trkpt>
      <trkpt lat="44.445941364392638" lon="11.202149391174316">
        <ele>199</ele>
        <time>2004-12-18T09:29:09Z</time>
      </trkpt>
      <trkpt lat="44.445748329162598" lon="11.202278137207031">
        <ele>197</ele>
        <time>2004-12-18T09:29:38Z</time>
      </trkpt>
      <trkpt lat="44.445705413818359" lon="11.202235221862793">
        <ele>194</ele>
        <time>2004-12-18T09:30:15Z</time>
      </trkpt>
      <trkpt lat="44.445598125457764" lon="11.202213764190674">
        <ele>195</ele>
        <time>2004-12-18T09:30:26Z</time>
      </trkpt>
      <trkpt lat="44.445555210113525" lon="11.202213764190674">
        <ele>195</ele>
        <time>2004-12-18T09:30:39Z</time>
      </trkpt>
      <trkpt lat="44.445512294769287" lon="11.202235221862793">
        <ele>197</ele>
        <time>2004-12-18T09:30:50Z</time>
      </trkpt>
      <trkpt lat="44.445469379425049" lon="11.202321136370301">
        <ele>196</ele>
        <time>2004-12-18T09:31:04Z</time>
      </trkpt>
      <trkpt lat="44.44544792175293" lon="11.20229959487915">
        <ele>197</ele>
        <time>2004-12-18T09:31:06Z</time>
      </trkpt>
      <trkpt lat="44.445426464080811" lon="11.20229959487915">
        <ele>194</ele>
        <time>2004-12-18T09:31:20Z</time>
      </trkpt>
      <trkpt lat="44.445405006408691" lon="11.20229959487915">
        <ele>191</ele>
        <time>2004-12-18T09:31:21Z</time>
      </trkpt>
      <trkpt lat="44.445362091064453" lon="11.202321136370301">
        <ele>193</ele>
        <time>2004-12-18T09:31:33Z</time>
      </trkpt>
      <trkpt lat="44.445276260375977" lon="11.202471340075135">
        <ele>195</ele>
        <time>2004-12-18T09:31:46Z</time>
      </trkpt>
      <trkpt lat="44.4451904296875" lon="11.202600002288818">
        <ele>196</ele>
        <time>2004-12-18T09:31:59Z</time>
      </trkpt>
      <trkpt lat="44.4451904296875" lon="11.202621459960938">
        <ele>196</ele>
        <time>2004-12-18T09:32:06Z</time>
      </trkpt>
      <trkpt lat="44.445126140490174" lon="11.202728664502501">
        <ele>198</ele>
        <time>2004-12-18T09:32:19Z</time>
      </trkpt>
      <trkpt lat="44.445126140490174" lon="11.202771663665771">
        <ele>199</ele>
        <time>2004-12-18T09:32:22Z</time>
      </trkpt>
      <trkpt lat="44.445083141326904" lon="11.202836036682129">
        <ele>197</ele>
        <time>2004-12-18T09:32:34Z</time>
      </trkpt>
      <trkpt lat="44.445061683654785" lon="11.202879035845399">
        <ele>200</ele>
        <time>2004-12-18T09:32:41Z</time>
      </trkpt>
      <trkpt lat="44.445061683654785" lon="11.202943325042725">
        <ele>199</ele>
        <time>2004-12-18T09:32:53Z</time>
      </trkpt>
      <trkpt lat="44.444847106933594" lon="11.203114986419678">
        <ele>200</ele>
        <time>2004-12-18T09:33:08Z</time>
      </trkpt>
      <trkpt lat="44.444782733917236" lon="11.203136360272765">
        <ele>203</ele>
        <time>2004-12-18T09:33:11Z</time>
      </trkpt>
      <trkpt lat="44.444675361737609" lon="11.203179359436035">
        <ele>202</ele>
        <time>2004-12-18T09:33:14Z</time>
      </trkpt>
      <trkpt lat="44.444525241851807" lon="11.203200817108154">
        <ele>197</ele>
        <time>2004-12-18T09:33:18Z</time>
      </trkpt>
      <trkpt lat="44.444482326507568" lon="11.203200817108154">
        <ele>195</ele>
        <time>2004-12-18T09:33:20Z</time>
      </trkpt>
      <trkpt lat="44.444396495819092" lon="11.203200817108154">
        <ele>193</ele>
        <time>2004-12-18T09:33:23Z</time>
      </trkpt>
      <trkpt lat="44.444310665130615" lon="11.203243732452393">
        <ele>190</ele>
        <time>2004-12-18T09:33:26Z</time>
      </trkpt>
      <trkpt lat="44.444289207458496" lon="11.203265190124512">
        <ele>190</ele>
        <time>2004-12-18T09:33:27Z</time>
      </trkpt>
      <trkpt lat="44.44420337677002" lon="11.203136360272765">
        <ele>188</ele>
        <time>2004-12-18T09:33:38Z</time>
      </trkpt>
      <trkpt lat="44.44420337677002" lon="11.203136360272765">
        <ele>187</ele>
        <time>2004-12-18T09:33:40Z</time>
      </trkpt>
      <trkpt lat="44.444160461425781" lon="11.203136360272765">
        <ele>187</ele>
        <time>2004-12-18T09:33:54Z</time>
      </trkpt>
      <trkpt lat="44.444160461425781" lon="11.203157901763916">
        <ele>185</ele>
        <time>2004-12-18T09:33:57Z</time>
      </trkpt>
      <trkpt lat="44.444160461425781" lon="11.203157901763916">
        <ele>186</ele>
        <time>2004-12-18T09:34:34Z</time>
      </trkpt>
      <trkpt lat="44.443988800048828" lon="11.203114986419678">
        <ele>186</ele>
        <time>2004-12-18T09:34:48Z</time>
      </trkpt>
      <trkpt lat="44.443881511688232" lon="11.203136360272765">
        <ele>186</ele>
        <time>2004-12-18T09:35:01Z</time>
      </trkpt>
      <trkpt lat="44.443860137835145" lon="11.203114986419678">
        <ele>185</ele>
        <time>2004-12-18T09:35:31Z</time>
      </trkpt>
      <trkpt lat="44.443860137835145" lon="11.203114986419678">
        <ele>185</ele>
        <time>2004-12-18T09:35:32Z</time>
      </trkpt>
      <trkpt lat="44.443817138671875" lon="11.203029239550233">
        <ele>183</ele>
        <time>2004-12-18T09:35:38Z</time>
      </trkpt>
      <trkpt lat="44.443752765655518" lon="11.202964782714844">
        <ele>179</ele>
        <time>2004-12-18T09:35:43Z</time>
      </trkpt>
      <trkpt lat="44.44368839263916" lon="11.202921867370605">
        <ele>177</ele>
        <time>2004-12-18T09:35:49Z</time>
      </trkpt>
      <trkpt lat="44.443581104278564" lon="11.202750205993652">
        <ele>174</ele>
        <time>2004-12-18T09:36:00Z</time>
      </trkpt>
      <trkpt lat="44.443581104278564" lon="11.202707290649414">
        <ele>174</ele>
        <time>2004-12-18T09:36:01Z</time>
      </trkpt>
      <trkpt lat="44.443559562787414" lon="11.202600002288818">
        <ele>171</ele>
        <time>2004-12-18T09:36:05Z</time>
      </trkpt>
      <trkpt lat="44.443559562787414" lon="11.202492713928223">
        <ele>167</ele>
        <time>2004-12-18T09:36:09Z</time>
      </trkpt>
      <trkpt lat="44.443559562787414" lon="11.202449798583984">
        <ele>167</ele>
        <time>2004-12-18T09:36:10Z</time>
      </trkpt>
      <trkpt lat="44.443581104278564" lon="11.202321136370301">
        <ele>164</ele>
        <time>2004-12-18T09:36:15Z</time>
      </trkpt>
      <trkpt lat="44.443559562787414" lon="11.20229959487915">
        <ele>164</ele>
        <time>2004-12-18T09:36:16Z</time>
      </trkpt>
      <trkpt lat="44.44340935908258" lon="11.202106475830078">
        <ele>166</ele>
        <time>2004-12-18T09:36:27Z</time>
      </trkpt>
      <trkpt lat="44.443366527557373" lon="11.201913440600038">
        <ele>162</ele>
        <time>2004-12-18T09:37:55Z</time>
      </trkpt>
      <trkpt lat="44.443152034655213" lon="11.201720237731934">
        <ele>158</ele>
        <time>2004-12-18T09:38:00Z</time>
      </trkpt>
      <trkpt lat="44.443087577819824" lon="11.201655864715576">
        <ele>158</ele>
        <time>2004-12-18T09:38:01Z</time>
      </trkpt>
      <trkpt lat="44.442958831787109" lon="11.201484203338623">
        <ele>155</ele>
        <time>2004-12-18T09:38:04Z</time>
      </trkpt>
      <trkpt lat="44.442915916442871" lon="11.201419830322266">
        <ele>155</ele>
        <time>2004-12-18T09:38:05Z</time>
      </trkpt>
      <trkpt lat="44.442808628082275" lon="11.201269626617432">
        <ele>152</ele>
        <time>2004-12-18T09:38:07Z</time>
      </trkpt>
      <trkpt lat="44.442529678344727" lon="11.201012134552002">
        <ele>148</ele>
        <time>2004-12-18T09:38:11Z</time>
      </trkpt>
      <trkpt lat="44.442315101623535" lon="11.200861930847168">
        <ele>144</ele>
        <time>2004-12-18T09:38:14Z</time>
      </trkpt>
      <trkpt lat="44.442229270935059" lon="11.200840473175049">
        <ele>143</ele>
        <time>2004-12-18T09:38:15Z</time>
      </trkpt>
      <trkpt lat="44.442186439409852" lon="11.200625896453857">
        <ele>140</ele>
        <time>2004-12-18T09:38:19Z</time>
      </trkpt>
      <trkpt lat="44.442336559295654" lon="11.200368404388428">
        <ele>138</ele>
        <time>2004-12-18T09:38:22Z</time>
      </trkpt>
      <trkpt lat="44.442508220672607" lon="11.20006799697876">
        <ele>138</ele>
        <time>2004-12-18T09:38:27Z</time>
      </trkpt>
      <trkpt lat="44.442529678344727" lon="11.199831962585449">
        <ele>138</ele>
        <time>2004-12-18T09:38:39Z</time>
      </trkpt>
      <trkpt lat="44.442529678344727" lon="11.199831962585449">
        <ele>138</ele>
        <time>2004-12-18T09:38:43Z</time>
      </trkpt>
      <trkpt lat="44.442529678344727" lon="11.19981050491333">
        <ele>138</ele>
        <time>2004-12-18T09:38:55Z</time>
      </trkpt>
      <trkpt lat="44.442551136016846" lon="11.199746131896973">
        <ele>135</ele>
        <time>2004-12-18T09:39:49Z</time>
      </trkpt>
      <trkpt lat="44.442551136016846" lon="11.199746131896973">
        <ele>134</ele>
        <time>2004-12-18T09:39:57Z</time>
      </trkpt>
      <trkpt lat="44.442551136016846" lon="11.199681758880615">
        <ele>133</ele>
        <time>2004-12-18T09:40:01Z</time>
      </trkpt>
      <trkpt lat="44.442722797393799" lon="11.199853420257568">
        <ele>145</ele>
        <time>2003-02-15T10:55:27Z</time>
      </trkpt>
      <trkpt lat="44.443173408508301" lon="11.199724674224854">
        <ele>144</ele>
        <time>2003-02-15T10:55:34Z</time>
      </trkpt>
      <trkpt lat="44.443302238360047" lon="11.199595928192139">
        <ele>143</ele>
        <time>2003-02-15T10:55:36Z</time>
      </trkpt>
      <trkpt lat="44.443624019622803" lon="11.199274063110352">
        <ele>143</ele>
        <time>2003-02-15T10:55:41Z</time>
      </trkpt>
      <trkpt lat="44.443538188934326" lon="11.199231063947082">
        <ele>135</ele>
        <time>2003-02-15T09:26:52Z</time>
      </trkpt>
      <trkpt lat="44.443366527557373" lon="11.199102401733398">
        <ele>138</ele>
        <time>2003-02-15T09:27:05Z</time>
      </trkpt>
      <trkpt lat="44.443237781524658" lon="11.198973739519715">
        <ele>141</ele>
        <time>2003-02-15T09:27:19Z</time>
      </trkpt>
      <trkpt lat="44.443087577819824" lon="11.198844909667969">
        <ele>144</ele>
        <time>2003-02-15T09:27:32Z</time>
      </trkpt>
      <trkpt lat="44.442958831787109" lon="11.198716163635254">
        <ele>147</ele>
        <time>2003-02-15T09:27:46Z</time>
      </trkpt>
      <trkpt lat="44.442765712738037" lon="11.198544502258301">
        <ele>150</ele>
        <time>2003-02-15T09:28:03Z</time>
      </trkpt>
      <trkpt lat="44.442658424377441" lon="11.198287010192871">
        <ele>153</ele>
        <time>2003-02-15T09:28:22Z</time>
      </trkpt>
      <trkpt lat="44.442615509033203" lon="11.198158264160156">
        <ele>156</ele>
        <time>2003-02-15T09:28:32Z</time>
      </trkpt>
      <trkpt lat="44.442508220672607" lon="11.197900772094727">
        <ele>160</ele>
        <time>2003-02-15T09:28:51Z</time>
      </trkpt>
      <trkpt lat="44.442443763837218" lon="11.197707736864686">
        <ele>163</ele>
        <time>2003-02-15T09:29:04Z</time>
      </trkpt>
      <trkpt lat="44.442315101623535" lon="11.197514533996582">
        <ele>166</ele>
        <time>2003-02-15T09:29:22Z</time>
      </trkpt>
      <trkpt lat="44.442186439409852" lon="11.197342872619629">
        <ele>170</ele>
        <time>2003-02-15T09:29:38Z</time>
      </trkpt>
      <trkpt lat="44.442079067230225" lon="11.197192668914795">
        <ele>173</ele>
        <time>2003-02-15T09:29:53Z</time>
      </trkpt>
      <trkpt lat="44.441993236541748" lon="11.197021007537842">
        <ele>177</ele>
        <time>2003-02-15T09:30:07Z</time>
      </trkpt>
      <trkpt lat="44.441907405853271" lon="11.196784973144531">
        <ele>179</ele>
        <time>2003-02-15T09:30:24Z</time>
      </trkpt>
      <trkpt lat="44.441843032836914" lon="11.196634769439697">
        <ele>183</ele>
        <time>2003-02-15T09:30:37Z</time>
      </trkpt>
      <trkpt lat="44.441778659820557" lon="11.196484565734863">
        <ele>183</ele>
        <time>2003-02-15T09:30:48Z</time>
      </trkpt>
      <trkpt lat="44.441671371459961" lon="11.19631290435791">
        <ele>189</ele>
        <time>2003-02-15T09:31:03Z</time>
      </trkpt>
      <trkpt lat="44.441564083099365" lon="11.196184158325195">
        <ele>192</ele>
        <time>2003-02-15T09:31:17Z</time>
      </trkpt>
      <trkpt lat="44.441413879394531" lon="11.195969581604004">
        <ele>196</ele>
        <time>2003-02-15T09:31:35Z</time>
      </trkpt>
      <trkpt lat="44.441370964050293" lon="11.195647716522217">
        <ele>200</ele>
        <time>2003-02-15T09:31:55Z</time>
      </trkpt>
      <trkpt lat="44.441370964050293" lon="11.195626258850098">
        <ele>200</ele>
        <time>2003-02-15T09:31:56Z</time>
      </trkpt>
      <trkpt lat="44.441327964887023" lon="11.195433139801025">
        <ele>202</ele>
        <time>2003-02-15T09:32:09Z</time>
      </trkpt>
      <trkpt lat="44.441285133361816" lon="11.195197105407715">
        <ele>206</ele>
        <time>2003-02-15T09:32:22Z</time>
      </trkpt>
      <trkpt lat="44.441242218017578" lon="11.194982528686523">
        <ele>209</ele>
        <time>2003-02-15T09:32:36Z</time>
      </trkpt>
      <trkpt lat="44.441177761182189" lon="11.194617664441466">
        <ele>212</ele>
        <time>2003-02-15T09:32:56Z</time>
      </trkpt>
      <trkpt lat="44.441113471984863" lon="11.194188594818115">
        <ele>214</ele>
        <time>2003-02-15T09:33:19Z</time>
      </trkpt>
      <trkpt lat="44.441006183624268" lon="11.193802440539002">
        <ele>217</ele>
        <time>2003-02-15T09:33:39Z</time>
      </trkpt>
      <trkpt lat="44.440963268280029" lon="11.193673610687256">
        <ele>219</ele>
        <time>2003-02-15T09:33:53Z</time>
      </trkpt>
      <trkpt lat="44.44094181060791" lon="11.193673610687256">
        <ele>218</ele>
        <time>2003-02-15T09:33:55Z</time>
      </trkpt>
      <trkpt lat="44.440877437591553" lon="11.193609237670898">
        <ele>220</ele>
        <time>2003-02-15T09:33:59Z</time>
      </trkpt>
      <trkpt lat="44.440748691558838" lon="11.193501865491271">
        <ele>223</ele>
        <time>2003-02-15T09:34:07Z</time>
      </trkpt>
      <trkpt lat="44.44044828414917" lon="11.193501865491271">
        <ele>225</ele>
        <time>2003-02-15T09:34:27Z</time>
      </trkpt>
      <trkpt lat="44.440147876739502" lon="11.193416118621826">
        <ele>228</ele>
        <time>2003-02-15T09:34:46Z</time>
      </trkpt>
      <trkpt lat="44.440040588378906" lon="11.193244541063905">
        <ele>229</ele>
        <time>2003-02-15T09:35:01Z</time>
      </trkpt>
      <trkpt lat="44.440019130706787" lon="11.193201541900635">
        <ele>229</ele>
        <time>2003-02-15T09:35:10Z</time>
      </trkpt>
      <trkpt lat="44.439997673034668" lon="11.193094337359071">
        <ele>231</ele>
        <time>2003-02-15T09:35:16Z</time>
      </trkpt>
      <trkpt lat="44.439976215362549" lon="11.192943966016173">
        <ele>232</ele>
        <time>2003-02-15T09:35:24Z</time>
      </trkpt>
      <trkpt lat="44.439997673034668" lon="11.192879676818848">
        <ele>231</ele>
        <time>2003-02-15T09:35:49Z</time>
      </trkpt>
      <trkpt lat="44.439997673034668" lon="11.192858219146729">
        <ele>231</ele>
        <time>2003-02-15T09:36:08Z</time>
      </trkpt>
      <trkpt lat="44.439976215362549" lon="11.192729473114014">
        <ele>230</ele>
        <time>2003-02-15T09:36:28Z</time>
      </trkpt>
      <trkpt lat="44.439976215362549" lon="11.192686641588807">
        <ele>230</ele>
        <time>2003-02-15T09:36:52Z</time>
      </trkpt>
      <trkpt lat="44.439976215362549" lon="11.192686641588807">
        <ele>229</ele>
        <time>2003-02-15T09:37:43Z</time>
      </trkpt>
      <trkpt lat="44.439976215362549" lon="11.192643558606505">
        <ele>228</ele>
        <time>2003-02-15T09:38:12Z</time>
      </trkpt>
      <trkpt lat="44.439954841509461" lon="11.192643558606505">
        <ele>229</ele>
        <time>2003-02-15T09:38:28Z</time>
      </trkpt>
      <trkpt lat="44.439783096313477" lon="11.192429065704346">
        <ele>226</ele>
        <time>2003-02-15T09:38:37Z</time>
      </trkpt>
      <trkpt lat="44.439611434936523" lon="11.192300319671631">
        <ele>226</ele>
        <time>2003-02-15T09:38:41Z</time>
      </trkpt>
      <trkpt lat="44.439117908477783" lon="11.192107200622559">
        <ele>226</ele>
        <time>2003-02-15T09:38:55Z</time>
      </trkpt>
      <trkpt lat="44.438903331756592" lon="11.191999912261963">
        <ele>227</ele>
        <time>2003-02-15T09:39:10Z</time>
      </trkpt>
      <trkpt lat="44.438881874084473" lon="11.191956996917725">
        <ele>227</ele>
        <time>2003-02-15T09:39:12Z</time>
      </trkpt>
      <trkpt lat="44.438838958740234" lon="11.191699504852295">
        <ele>230</ele>
        <time>2003-02-15T09:39:23Z</time>
      </trkpt>
      <trkpt lat="44.438817501068115" lon="11.19152775965631">
        <ele>233</ele>
        <time>2003-02-15T09:39:29Z</time>
      </trkpt>
      <trkpt lat="44.438624382019043" lon="11.191227436065674">
        <ele>236</ele>
        <time>2003-02-15T09:39:46Z</time>
      </trkpt>
      <trkpt lat="44.438130939379334" lon="11.190969860181212">
        <ele>238</ele>
        <time>2003-02-15T09:40:12Z</time>
      </trkpt>
      <trkpt lat="44.437530040740967" lon="11.190605163574219">
        <ele>239</ele>
        <time>2003-02-15T09:40:37Z</time>
      </trkpt>
      <trkpt lat="44.437186717987061" lon="11.190411960706115">
        <ele>243</ele>
        <time>2003-02-15T09:40:55Z</time>
      </trkpt>
      <trkpt lat="44.436993598937988" lon="11.190283298492432">
        <ele>246</ele>
        <time>2003-02-15T09:41:10Z</time>
      </trkpt>
      <trkpt lat="44.436972141265869" lon="11.190261840820313">
        <ele>246</ele>
        <time>2003-02-15T09:41:12Z</time>
      </trkpt>
      <trkpt lat="44.436907768249512" lon="11.190240383148193">
        <ele>247</ele>
        <time>2003-02-15T09:41:17Z</time>
      </trkpt>
      <trkpt lat="44.436779022216797" lon="11.190154636278749">
        <ele>249</ele>
        <time>2003-02-15T09:41:27Z</time>
      </trkpt>
      <trkpt lat="44.436521530151367" lon="11.19006872177124">
        <ele>252</ele>
        <time>2003-02-15T09:41:42Z</time>
      </trkpt>
      <trkpt lat="44.436285495758057" lon="11.189982891082764">
        <ele>255</ele>
        <time>2003-02-15T09:41:55Z</time>
      </trkpt>
      <trkpt lat="44.435985088348389" lon="11.189725399017334">
        <ele>258</ele>
        <time>2003-02-15T09:42:17Z</time>
      </trkpt>
      <trkpt lat="44.435577392578125" lon="11.18931770324707">
        <ele>257</ele>
        <time>2003-02-15T09:42:42Z</time>
      </trkpt>
      <trkpt lat="44.434998035430908" lon="11.189961433410645">
        <ele>256</ele>
        <time>2003-02-15T09:42:58Z</time>
      </trkpt>
      <trkpt lat="44.434590339660645" lon="11.190218925476074">
        <ele>258</ele>
        <time>2003-02-15T09:43:15Z</time>
      </trkpt>
      <trkpt lat="44.434010982513428" lon="11.190197467803955">
        <ele>258</ele>
        <time>2003-02-15T09:43:35Z</time>
      </trkpt>
      <trkpt lat="44.433388710021973" lon="11.190133094787598">
        <ele>259</ele>
        <time>2003-02-15T09:43:54Z</time>
      </trkpt>
      <trkpt lat="44.433216964825988" lon="11.190047264099121">
        <ele>247</ele>
        <time>2003-11-23T09:35:53Z</time>
      </trkpt>
      <trkpt lat="44.433367336168885" lon="11.189661026000977">
        <ele>242</ele>
        <time>2003-11-23T09:35:56Z</time>
      </trkpt>
      <trkpt lat="44.433410167694092" lon="11.189532279968262">
        <ele>239</ele>
        <time>2003-11-23T09:35:59Z</time>
      </trkpt>
      <trkpt lat="44.433410167694092" lon="11.189489364624023">
        <ele>239</ele>
        <time>2003-11-23T09:36:00Z</time>
      </trkpt>
      <trkpt lat="44.433517539873719" lon="11.189210414886475">
        <ele>235</ele>
        <time>2003-11-23T09:36:07Z</time>
      </trkpt>
      <trkpt lat="44.433560371398926" lon="11.189017295837402">
        <ele>232</ele>
        <time>2003-11-23T09:36:11Z</time>
      </trkpt>
      <trkpt lat="44.43371057510376" lon="11.1885666847229">
        <ele>228</ele>
        <time>2003-11-23T09:36:16Z</time>
      </trkpt>
      <trkpt lat="44.433796405792236" lon="11.188287734985352">
        <ele>224</ele>
        <time>2003-11-23T09:36:19Z</time>
      </trkpt>
      <trkpt lat="44.433860778808594" lon="11.188008785247803">
        <ele>219</ele>
        <time>2003-11-23T09:36:22Z</time>
      </trkpt>
      <trkpt lat="44.433903694152832" lon="11.18781566619873">
        <ele>216</ele>
        <time>2003-11-23T09:36:24Z</time>
      </trkpt>
      <trkpt lat="44.433989524841309" lon="11.187493801116943">
        <ele>211</ele>
        <time>2003-11-23T09:36:27Z</time>
      </trkpt>
      <trkpt lat="44.434010982513428" lon="11.18736513890326">
        <ele>209</ele>
        <time>2003-11-23T09:36:28Z</time>
      </trkpt>
      <trkpt lat="44.434053897857666" lon="11.186807239428163">
        <ele>203</ele>
        <time>2003-11-23T09:36:32Z</time>
      </trkpt>
      <trkpt lat="44.434053897857666" lon="11.186463832855225">
        <ele>197</ele>
        <time>2003-11-23T09:36:34Z</time>
      </trkpt>
      <trkpt lat="44.434053897857666" lon="11.186120510101318">
        <ele>193</ele>
        <time>2003-11-23T09:36:36Z</time>
      </trkpt>
      <trkpt lat="44.434075439348817" lon="11.18584156036377">
        <ele>189</ele>
        <time>2003-11-23T09:36:38Z</time>
      </trkpt>
      <trkpt lat="44.434096813201904" lon="11.185648441314697">
        <ele>186</ele>
        <time>2003-11-23T09:36:40Z</time>
      </trkpt>
      <trkpt lat="44.434096813201904" lon="11.185455322265625">
        <ele>184</ele>
        <time>2003-11-23T09:36:43Z</time>
      </trkpt>
      <trkpt lat="44.434118270874023" lon="11.185369491577148">
        <ele>184</ele>
        <time>2003-11-23T09:36:45Z</time>
      </trkpt>
      <trkpt lat="44.434118270874023" lon="11.18532657623291">
        <ele>182</ele>
        <time>2003-11-23T09:36:57Z</time>
      </trkpt>
      <trkpt lat="44.434118270874023" lon="11.18532657623291">
        <ele>183</ele>
        <time>2003-11-23T09:37:06Z</time>
      </trkpt>
      <trkpt lat="44.433796405792236" lon="11.185240661725402">
        <ele>181</ele>
        <time>2003-11-23T09:37:17Z</time>
      </trkpt>
      <trkpt lat="44.433560371398926" lon="11.185176372528076">
        <ele>179</ele>
        <time>2003-11-23T09:37:20Z</time>
      </trkpt>
      <trkpt lat="44.433259963989258" lon="11.185004711151123">
        <ele>175</ele>
        <time>2003-11-23T09:37:24Z</time>
      </trkpt>
      <trkpt lat="44.433259963989258" lon="11.184790134429932">
        <ele>173</ele>
        <time>2003-11-23T09:37:26Z</time>
      </trkpt>
      <trkpt lat="44.433367336168885" lon="11.18408203125">
        <ele>171</ele>
        <time>2003-11-23T09:37:32Z</time>
      </trkpt>
      <trkpt lat="44.433410167694092" lon="11.183803081512451">
        <ele>168</ele>
        <time>2003-11-23T09:37:34Z</time>
      </trkpt>
      <trkpt lat="44.433495998382568" lon="11.183288097381592">
        <ele>164</ele>
        <time>2003-11-23T09:37:37Z</time>
      </trkpt>
      <trkpt lat="44.433517539873719" lon="11.182901859283447">
        <ele>160</ele>
        <time>2003-11-23T09:37:39Z</time>
      </trkpt>
      <trkpt lat="44.433538913726807" lon="11.182515621185303">
        <ele>154</ele>
        <time>2003-11-23T09:37:41Z</time>
      </trkpt>
      <trkpt lat="44.433560371398926" lon="11.182172298431396">
        <ele>150</ele>
        <time>2003-11-23T09:37:43Z</time>
      </trkpt>
      <trkpt lat="44.433774864301085" lon="11.181528568267822">
        <ele>144</ele>
        <time>2003-11-23T09:37:47Z</time>
      </trkpt>
      <trkpt lat="44.433989524841309" lon="11.181078040972352">
        <ele>140</ele>
        <time>2003-11-23T09:37:50Z</time>
      </trkpt>
      <trkpt lat="44.434118270874023" lon="11.180799007415771">
        <ele>135</ele>
        <time>2003-11-23T09:37:52Z</time>
      </trkpt>
      <trkpt lat="44.434225559234619" lon="11.18058443069458">
        <ele>132</ele>
        <time>2003-11-23T09:37:54Z</time>
      </trkpt>
      <trkpt lat="44.434332763776183" lon="11.18032693862915">
        <ele>130</ele>
        <time>2003-11-23T09:37:57Z</time>
      </trkpt>
      <trkpt lat="44.434397220611572" lon="11.180198192596436">
        <ele>128</ele>
        <time>2003-11-23T09:38:00Z</time>
      </trkpt>
      <trkpt lat="44.43446159362793" lon="11.180026531219482">
        <ele>128</ele>
        <time>2003-11-23T09:38:07Z</time>
      </trkpt>
      <trkpt lat="44.43446159362793" lon="11.180005073547363">
        <ele>127</ele>
        <time>2003-11-23T09:38:10Z</time>
      </trkpt>
      <trkpt lat="44.434869289398193" lon="11.179125308990479">
        <ele>128</ele>
        <time>2003-11-23T09:38:23Z</time>
      </trkpt>
      <trkpt lat="44.435062408447266" lon="11.179232597351074">
        <ele>140</ele>
        <time>2003-01-26T10:18:56Z</time>
      </trkpt>
      <trkpt lat="44.43596363067627" lon="11.179726123809814">
        <ele>137</ele>
        <time>2003-01-26T10:19:09Z</time>
      </trkpt>
      <trkpt lat="44.436800479888916" lon="11.180112361907959">
        <ele>134</ele>
        <time>2003-01-26T10:19:19Z</time>
      </trkpt>
      <trkpt lat="44.43845272064209" lon="11.180477058514953">
        <ele>131</ele>
        <time>2003-01-26T10:19:38Z</time>
      </trkpt>
      <trkpt lat="44.439654434099793" lon="11.180756092071533">
        <ele>131</ele>
        <time>2003-01-26T10:19:53Z</time>
      </trkpt>
      <trkpt lat="44.440512740984559" lon="11.181120872497559">
        <ele>130</ele>
        <time>2003-01-26T10:20:05Z</time>
      </trkpt>
      <trkpt lat="44.440619861707091" lon="11.180884838104248">
        <ele>125</ele>
        <time>2003-11-23T09:44:50Z</time>
      </trkpt>
      <trkpt lat="44.440770065411925" lon="11.180305480957031">
        <ele>126</ele>
        <time>2003-11-23T09:45:08Z</time>
      </trkpt>
      <trkpt lat="44.440920436754823" lon="11.179769039154053">
        <ele>127</ele>
        <time>2003-11-23T09:45:22Z</time>
      </trkpt>
      <trkpt lat="44.44094181060791" lon="11.179146766662598">
        <ele>130</ele>
        <time>2003-11-23T09:45:36Z</time>
      </trkpt>
      <trkpt lat="44.440984725952148" lon="11.178674697875977">
        <ele>133</ele>
        <time>2003-11-23T09:45:48Z</time>
      </trkpt>
      <trkpt lat="44.441113471984863" lon="11.177794933319092">
        <ele>134</ele>
        <time>2003-11-23T09:46:08Z</time>
      </trkpt>
      <trkpt lat="44.441113471984863" lon="11.177730560302734">
        <ele>134</ele>
        <time>2003-11-23T09:46:09Z</time>
      </trkpt>
      <trkpt lat="44.44094181060791" lon="11.177000999450684">
        <ele>136</ele>
        <time>2003-11-23T09:46:26Z</time>
      </trkpt>
      <trkpt lat="44.440877437591553" lon="11.176378726959229">
        <ele>137</ele>
        <time>2003-11-23T09:46:41Z</time>
      </trkpt>
      <trkpt lat="44.440984725952148" lon="11.175799369812012">
        <ele>139</ele>
        <time>2003-11-23T09:46:56Z</time>
      </trkpt>
      <trkpt lat="44.441070640459657" lon="11.175520420074463">
        <ele>142</ele>
        <time>2003-11-23T09:47:08Z</time>
      </trkpt>
      <trkpt lat="44.441070640459657" lon="11.175177097320557">
        <ele>145</ele>
        <time>2003-11-23T09:47:25Z</time>
      </trkpt>
      <trkpt lat="44.441070640459657" lon="11.174705028533936">
        <ele>149</ele>
        <time>2003-11-23T09:47:43Z</time>
      </trkpt>
      <trkpt lat="44.441092014312744" lon="11.174468994140625">
        <ele>152</ele>
        <time>2003-11-23T09:47:55Z</time>
      </trkpt>
      <trkpt lat="44.441370964050293" lon="11.173911094665527">
        <ele>153</ele>
        <time>2003-11-23T09:48:17Z</time>
      </trkpt>
      <trkpt lat="44.441521167755127" lon="11.173546314239502">
        <ele>153</ele>
        <time>2003-11-23T09:48:26Z</time>
      </trkpt>
      <trkpt lat="44.441413879394531" lon="11.173052787780762">
        <ele>153</ele>
        <time>2003-11-23T09:48:38Z</time>
      </trkpt>
      <trkpt lat="44.441134929656982" lon="11.173117160797119">
        <ele>154</ele>
        <time>2003-11-23T09:48:49Z</time>
      </trkpt>
      <trkpt lat="44.441006183624268" lon="11.173138618469238">
        <ele>156</ele>
        <time>2003-11-23T09:48:58Z</time>
      </trkpt>
      <trkpt lat="44.440855979919434" lon="11.172967040911317">
        <ele>160</ele>
        <time>2003-11-23T09:49:10Z</time>
      </trkpt>
      <trkpt lat="44.440855979919434" lon="11.17283821105957">
        <ele>163</ele>
        <time>2003-11-23T09:49:16Z</time>
      </trkpt>
      <trkpt lat="44.44094181060791" lon="11.172516262158751">
        <ele>165</ele>
        <time>2003-11-23T09:49:31Z</time>
      </trkpt>
      <trkpt lat="44.440984725952148" lon="11.172237396240234">
        <ele>169</ele>
        <time>2003-11-23T09:49:44Z</time>
      </trkpt>
      <trkpt lat="44.440984725952148" lon="11.172194480895996">
        <ele>170</ele>
        <time>2003-11-23T09:49:46Z</time>
      </trkpt>
      <trkpt lat="44.440984725952148" lon="11.17185115814209">
        <ele>173</ele>
        <time>2003-11-23T09:50:03Z</time>
      </trkpt>
      <trkpt lat="44.440984725952148" lon="11.17159366607666">
        <ele>176</ele>
        <time>2003-11-23T09:50:16Z</time>
      </trkpt>
      <trkpt lat="44.440898895263672" lon="11.171250259503722">
        <ele>179</ele>
        <time>2003-11-23T09:50:34Z</time>
      </trkpt>
      <trkpt lat="44.440534114837646" lon="11.170885562896729">
        <ele>181</ele>
        <time>2003-11-23T09:51:00Z</time>
      </trkpt>
      <trkpt lat="44.440233707427979" lon="11.170628070831299">
        <ele>183</ele>
        <time>2003-11-23T09:51:16Z</time>
      </trkpt>
      <trkpt lat="44.440126419067383" lon="11.170520782470703">
        <ele>186</ele>
        <time>2003-11-23T09:51:27Z</time>
      </trkpt>
      <trkpt lat="44.440126419067383" lon="11.170520782470703">
        <ele>185</ele>
        <time>2003-11-23T09:51:31Z</time>
      </trkpt>
      <trkpt lat="44.43991175852716" lon="11.170284664258361">
        <ele>189</ele>
        <time>2003-11-23T09:51:50Z</time>
      </trkpt>
      <trkpt lat="44.439783096313477" lon="11.170027339830995">
        <ele>195</ele>
        <time>2003-11-23T09:59:02Z</time>
      </trkpt>
      <trkpt lat="44.439675807952881" lon="11.169769763946533">
        <ele>198</ele>
        <time>2003-11-23T09:59:14Z</time>
      </trkpt>
      <trkpt lat="44.439568519592285" lon="11.169426441192627">
        <ele>202</ele>
        <time>2003-11-23T09:59:28Z</time>
      </trkpt>
      <trkpt lat="44.439504062756896" lon="11.16884708404541">
        <ele>205</ele>
        <time>2003-11-23T09:59:49Z</time>
      </trkpt>
      <trkpt lat="44.43943977355957" lon="11.168546676635742">
        <ele>208</ele>
        <time>2003-11-23T10:00:01Z</time>
      </trkpt>
      <trkpt lat="44.439289569854736" lon="11.168224811553955">
        <ele>211</ele>
        <time>2003-11-23T10:00:16Z</time>
      </trkpt>
      <trkpt lat="44.439139366149902" lon="11.167945861816406">
        <ele>214</ele>
        <time>2003-11-23T10:00:30Z</time>
      </trkpt>
      <trkpt lat="44.438989162445068" lon="11.167666912078857">
        <ele>217</ele>
        <time>2003-11-23T10:00:47Z</time>
      </trkpt>
      <trkpt lat="44.438838958740234" lon="11.167387962341309">
        <ele>221</ele>
        <time>2003-11-23T10:01:04Z</time>
      </trkpt>
      <trkpt lat="44.438645839691162" lon="11.167151927947998">
        <ele>225</ele>
        <time>2003-11-23T10:01:22Z</time>
      </trkpt>
      <trkpt lat="44.438602924346924" lon="11.16710901260376">
        <ele>226</ele>
        <time>2003-11-23T10:01:26Z</time>
      </trkpt>
      <trkpt lat="44.438409805297852" lon="11.166894435882568">
        <ele>229</ele>
        <time>2003-11-23T10:01:42Z</time>
      </trkpt>
      <trkpt lat="44.438259601593018" lon="11.166679859161377">
        <ele>232</ele>
        <time>2003-11-23T10:01:55Z</time>
      </trkpt>
      <trkpt lat="44.438152313232422" lon="11.166293621063232">
        <ele>236</ele>
        <time>2003-11-23T10:02:11Z</time>
      </trkpt>
      <trkpt lat="44.438152313232422" lon="11.166293621063232">
        <ele>236</ele>
        <time>2003-11-23T10:02:15Z</time>
      </trkpt>
      <trkpt lat="44.438152313232422" lon="11.166293621063232">
        <ele>237</ele>
        <time>2003-11-23T10:02:32Z</time>
      </trkpt>
      <trkpt lat="44.438002109527588" lon="11.165778636932373">
        <ele>238</ele>
        <time>2003-11-23T10:02:47Z</time>
      </trkpt>
      <trkpt lat="44.437808990478516" lon="11.165070533752441">
        <ele>241</ele>
        <time>2003-11-23T10:03:10Z</time>
      </trkpt>
      <trkpt lat="44.437615871429443" lon="11.164684295654297">
        <ele>245</ele>
        <time>2003-11-23T10:03:29Z</time>
      </trkpt>
      <trkpt lat="44.437358379364014" lon="11.164276599884033">
        <ele>247</ele>
        <time>2003-11-23T10:03:50Z</time>
      </trkpt>
      <trkpt lat="44.437186717987061" lon="11.163997733965516">
        <ele>250</ele>
        <time>2003-11-23T10:04:04Z</time>
      </trkpt>
      <trkpt lat="44.437036514282227" lon="11.163783073425293">
        <ele>252</ele>
        <time>2003-11-23T10:04:15Z</time>
      </trkpt>
      <trkpt lat="44.436843395233154" lon="11.163461208343506">
        <ele>255</ele>
        <time>2003-11-23T10:04:34Z</time>
      </trkpt>
      <trkpt lat="44.436671733856201" lon="11.163203716278076">
        <ele>259</ele>
        <time>2003-11-23T10:04:51Z</time>
      </trkpt>
      <trkpt lat="44.436500072479248" lon="11.162881935015321">
        <ele>262</ele>
        <time>2003-11-23T10:05:08Z</time>
      </trkpt>
      <trkpt lat="44.436435699462891" lon="11.162624359130859">
        <ele>264</ele>
        <time>2003-11-23T10:05:21Z</time>
      </trkpt>
      <trkpt lat="44.436414241790771" lon="11.162538528442383">
        <ele>266</ele>
        <time>2003-11-23T10:05:26Z</time>
      </trkpt>
      <trkpt lat="44.436349868774414" lon="11.162259578704834">
        <ele>269</ele>
        <time>2003-11-23T10:05:41Z</time>
      </trkpt>
      <trkpt lat="44.436285495758057" lon="11.162002086639404">
        <ele>272</ele>
        <time>2003-11-23T10:05:53Z</time>
      </trkpt>
      <trkpt lat="44.436242580413818" lon="11.161787509918213">
        <ele>276</ele>
        <time>2003-11-23T10:06:03Z</time>
      </trkpt>
      <trkpt lat="44.43619966506958" lon="11.161615764722228">
        <ele>278</ele>
        <time>2003-11-23T10:06:11Z</time>
      </trkpt>
      <trkpt lat="44.43615666590631" lon="11.161422729492188">
        <ele>280</ele>
        <time>2003-11-23T10:06:20Z</time>
      </trkpt>
      <trkpt lat="44.436135292053223" lon="11.161379814147949">
        <ele>282</ele>
        <time>2003-11-23T10:06:23Z</time>
      </trkpt>
      <trkpt lat="44.436092376708984" lon="11.161358440294862">
        <ele>283</ele>
        <time>2003-11-23T10:06:27Z</time>
      </trkpt>
      <trkpt lat="44.435813426971436" lon="11.161422729492188">
        <ele>285</ele>
        <time>2003-11-23T10:06:46Z</time>
      </trkpt>
      <trkpt lat="44.43570613861084" lon="11.161379814147949">
        <ele>288</ele>
        <time>2003-11-23T10:06:55Z</time>
      </trkpt>
      <trkpt lat="44.435663223266602" lon="11.161143779754639">
        <ele>291</ele>
        <time>2003-11-23T10:07:04Z</time>
      </trkpt>
      <trkpt lat="44.435663223266602" lon="11.161036491394043">
        <ele>293</ele>
        <time>2003-11-23T10:07:08Z</time>
      </trkpt>
      <trkpt lat="44.435727596282959" lon="11.160757541656494">
        <ele>296</ele>
        <time>2003-11-23T10:07:20Z</time>
      </trkpt>
      <trkpt lat="44.435985088348389" lon="11.160564422607422">
        <ele>299</ele>
        <time>2003-11-23T10:07:37Z</time>
      </trkpt>
      <trkpt lat="44.436242580413818" lon="11.160435676574707">
        <ele>302</ele>
        <time>2003-11-23T10:07:55Z</time>
      </trkpt>
      <trkpt lat="44.436264038085938" lon="11.160392761230469">
        <ele>303</ele>
        <time>2003-11-23T10:08:00Z</time>
      </trkpt>
      <trkpt lat="44.436221122741699" lon="11.160392761230469">
        <ele>304</ele>
        <time>2003-11-23T10:08:04Z</time>
      </trkpt>
      <trkpt lat="44.43594217300415" lon="11.160221099853516">
        <ele>307</ele>
        <time>2003-11-23T10:08:22Z</time>
      </trkpt>
      <trkpt lat="44.435856258496642" lon="11.159942233934999">
        <ele>311</ele>
        <time>2003-11-23T10:08:36Z</time>
      </trkpt>
      <trkpt lat="44.435856258496642" lon="11.159920692443848">
        <ele>311</ele>
        <time>2003-11-23T10:08:37Z</time>
      </trkpt>
      <trkpt lat="44.436092376708984" lon="11.159942233934999">
        <ele>313</ele>
        <time>2003-11-23T10:08:52Z</time>
      </trkpt>
      <trkpt lat="44.436435699462891" lon="11.159834861755371">
        <ele>315</ele>
        <time>2003-11-23T10:09:11Z</time>
      </trkpt>
      <trkpt lat="44.436757564544678" lon="11.159663200378418">
        <ele>318</ele>
        <time>2003-11-23T10:09:28Z</time>
      </trkpt>
      <trkpt lat="44.43695068359375" lon="11.159791862592101">
        <ele>319</ele>
        <time>2003-11-23T10:09:41Z</time>
      </trkpt>
      <trkpt lat="44.437143802642822" lon="11.159899234771729">
        <ele>320</ele>
        <time>2003-11-23T10:10:00Z</time>
      </trkpt>
      <trkpt lat="44.437143802642822" lon="11.159899234771729">
        <ele>320</ele>
        <time>2003-11-23T10:13:30Z</time>
      </trkpt>
      <trkpt lat="44.437530040740967" lon="11.16011381149292">
        <ele>321</ele>
        <time>2003-11-23T10:13:51Z</time>
      </trkpt>
      <trkpt lat="44.438002109527588" lon="11.16037130355835">
        <ele>324</ele>
        <time>2003-11-23T10:14:16Z</time>
      </trkpt>
      <trkpt lat="44.438323974609375" lon="11.160542964935303">
        <ele>327</ele>
        <time>2003-11-23T10:14:36Z</time>
      </trkpt>
      <trkpt lat="44.43845272064209" lon="11.160564422607422">
        <ele>330</ele>
        <time>2003-11-23T10:14:46Z</time>
      </trkpt>
      <trkpt lat="44.438581466674805" lon="11.160564422607422">
        <ele>333</ele>
        <time>2003-11-23T10:14:54Z</time>
      </trkpt>
      <trkpt lat="44.438817501068115" lon="11.160564422607422">
        <ele>336</ele>
        <time>2003-11-23T10:15:12Z</time>
      </trkpt>
      <trkpt lat="44.438903331756592" lon="11.160564422607422">
        <ele>338</ele>
        <time>2003-11-23T10:15:15Z</time>
      </trkpt>
      <trkpt lat="44.439117908477783" lon="11.160564422607422">
        <ele>340</ele>
        <time>2003-11-23T10:15:30Z</time>
      </trkpt>
      <trkpt lat="44.439525604248047" lon="11.160736083984375">
        <ele>342</ele>
        <time>2003-11-23T10:15:51Z</time>
      </trkpt>
      <trkpt lat="44.440147876739502" lon="11.160886287689209">
        <ele>343</ele>
        <time>2003-11-23T10:16:18Z</time>
      </trkpt>
      <trkpt lat="44.440340995788574" lon="11.160993576049805">
        <ele>342</ele>
        <time>2003-11-23T10:16:25Z</time>
      </trkpt>
      <trkpt lat="44.440491199493408" lon="11.1611008644104">
        <ele>341</ele>
        <time>2003-11-23T10:16:28Z</time>
      </trkpt>
      <trkpt lat="44.440619861707091" lon="11.161186695098877">
        <ele>340</ele>
        <time>2003-11-23T10:16:30Z</time>
      </trkpt>
      <trkpt lat="44.440770065411925" lon="11.161251068115234">
        <ele>338</ele>
        <time>2003-11-23T10:16:32Z</time>
      </trkpt>
      <trkpt lat="44.441113471984863" lon="11.161208236590028">
        <ele>335</ele>
        <time>2003-11-23T10:16:36Z</time>
      </trkpt>
      <trkpt lat="44.441392421722412" lon="11.161251068115234">
        <ele>332</ele>
        <time>2003-11-23T10:16:39Z</time>
      </trkpt>
      <trkpt lat="44.441714286804199" lon="11.161487102508545">
        <ele>330</ele>
        <time>2003-11-23T10:16:43Z</time>
      </trkpt>
      <trkpt lat="44.441993236541748" lon="11.161959171295166">
        <ele>331</ele>
        <time>2003-11-23T10:16:49Z</time>
      </trkpt>
      <trkpt lat="44.442100524902344" lon="11.162087917327881">
        <ele>332</ele>
        <time>2003-11-23T10:16:52Z</time>
      </trkpt>
      <trkpt lat="44.442250728607178" lon="11.162302494049072">
        <ele>335</ele>
        <time>2003-11-23T10:16:58Z</time>
      </trkpt>
      <trkpt lat="44.442400932312012" lon="11.162474239245057">
        <ele>337</ele>
        <time>2003-11-23T10:17:04Z</time>
      </trkpt>
      <trkpt lat="44.442572593688965" lon="11.162688732147217">
        <ele>339</ele>
        <time>2003-11-23T10:17:11Z</time>
      </trkpt>
      <trkpt lat="44.442980289459229" lon="11.163225173950195">
        <ele>341</ele>
        <time>2003-11-23T10:17:31Z</time>
      </trkpt>
      <trkpt lat="44.443323612213135" lon="11.163590038195252">
        <ele>341</ele>
        <time>2003-11-23T10:17:43Z</time>
      </trkpt>
      <trkpt lat="44.444224834442139" lon="11.163954734802246">
        <ele>338</ele>
        <time>2003-11-23T10:18:00Z</time>
      </trkpt>
      <trkpt lat="44.444310665130615" lon="11.164062023162842">
        <ele>338</ele>
        <time>2003-11-23T10:18:02Z</time>
      </trkpt>
      <trkpt lat="44.444375038146973" lon="11.164233684539795">
        <ele>337</ele>
        <time>2003-11-23T10:18:04Z</time>
      </trkpt>
      <trkpt lat="44.444310665130615" lon="11.164791584014893">
        <ele>337</ele>
        <time>2003-11-23T10:18:13Z</time>
      </trkpt>
      <trkpt lat="44.444310665130615" lon="11.165027618408203">
        <ele>333</ele>
        <time>2003-11-23T10:18:16Z</time>
      </trkpt>
      <trkpt lat="44.444568241015077" lon="11.165800094604492">
        <ele>330</ele>
        <time>2003-11-23T10:18:24Z</time>
      </trkpt>
      <trkpt lat="44.44493293762207" lon="11.166658401489258">
        <ele>328</ele>
        <time>2003-11-23T10:18:35Z</time>
      </trkpt>
      <trkpt lat="44.445598125457764" lon="11.167902862653136">
        <ele>330</ele>
        <time>2003-11-23T10:18:50Z</time>
      </trkpt>
      <trkpt lat="44.445748329162598" lon="11.168181896209717">
        <ele>333</ele>
        <time>2003-11-23T10:18:55Z</time>
      </trkpt>
      <trkpt lat="44.445791160687804" lon="11.1683105584234">
        <ele>335</ele>
        <time>2003-11-23T10:19:02Z</time>
      </trkpt>
      <trkpt lat="44.445919990539551" lon="11.168482303619385">
        <ele>338</ele>
        <time>2003-11-23T10:19:12Z</time>
      </trkpt>
      <trkpt lat="44.446156024932861" lon="11.168632507324219">
        <ele>339</ele>
        <time>2003-11-23T10:19:26Z</time>
      </trkpt>
      <trkpt lat="44.446263313293457" lon="11.168675422668457">
        <ele>337</ele>
        <time>2003-11-23T10:19:28Z</time>
      </trkpt>
      <trkpt lat="44.446563720703125" lon="11.168889999389648">
        <ele>334</ele>
        <time>2003-11-23T10:19:32Z</time>
      </trkpt>
      <trkpt lat="44.446713924407959" lon="11.169018661603332">
        <ele>333</ele>
        <time>2003-11-23T10:19:34Z</time>
      </trkpt>
      <trkpt lat="44.44692850112915" lon="11.16934061050415">
        <ele>332</ele>
        <time>2003-11-23T10:19:38Z</time>
      </trkpt>
      <trkpt lat="44.446971416473389" lon="11.169576561078429">
        <ele>331</ele>
        <time>2003-11-23T10:19:41Z</time>
      </trkpt>
      <trkpt lat="44.447014331817627" lon="11.17009162902832">
        <ele>333</ele>
        <time>2003-11-23T10:19:52Z</time>
      </trkpt>
      <trkpt lat="44.447057163342834" lon="11.170241832733154">
        <ele>336</ele>
        <time>2003-11-23T10:19:58Z</time>
      </trkpt>
      <trkpt lat="44.447078704833984" lon="11.170284664258361">
        <ele>337</ele>
        <time>2003-11-23T10:20:10Z</time>
      </trkpt>
      <trkpt lat="44.447271823883057" lon="11.170477867126465">
        <ele>339</ele>
        <time>2003-11-23T10:21:58Z</time>
      </trkpt>
      <trkpt lat="44.447615062817931" lon="11.170649528503418">
        <ele>343</ele>
        <time>2003-11-23T10:22:17Z</time>
      </trkpt>
      <trkpt lat="44.447894096374512" lon="11.170799732208252">
        <ele>346</ele>
        <time>2003-11-23T10:22:30Z</time>
      </trkpt>
      <trkpt lat="44.448323165997863" lon="11.17133617401123">
        <ele>344</ele>
        <time>2003-11-23T10:22:49Z</time>
      </trkpt>
      <trkpt lat="44.448387622833252" lon="11.171443462371826">
        <ele>342</ele>
        <time>2003-11-23T10:22:51Z</time>
      </trkpt>
      <trkpt lat="44.448516368865967" lon="11.17159366607666">
        <ele>341</ele>
        <time>2003-11-23T10:22:54Z</time>
      </trkpt>
      <trkpt lat="44.448666572570801" lon="11.172409141436219">
        <ele>337</ele>
        <time>2003-11-23T10:23:03Z</time>
      </trkpt>
      <trkpt lat="44.448666572570801" lon="11.17260217666626">
        <ele>336</ele>
        <time>2003-11-23T10:23:05Z</time>
      </trkpt>
      <trkpt lat="44.448666572570801" lon="11.172795295715332">
        <ele>334</ele>
        <time>2003-11-23T10:23:07Z</time>
      </trkpt>
      <trkpt lat="44.448301792144775" lon="11.173460483551025">
        <ele>333</ele>
        <time>2003-11-23T10:23:15Z</time>
      </trkpt>
      <trkpt lat="44.448130130767822" lon="11.173675060272217">
        <ele>331</ele>
        <time>2003-11-23T10:23:20Z</time>
      </trkpt>
      <trkpt lat="44.44793701171875" lon="11.173889636993408">
        <ele>329</ele>
        <time>2003-11-23T10:23:25Z</time>
      </trkpt>
      <trkpt lat="44.44793701171875" lon="11.173889636993408">
        <ele>329</ele>
        <time>2003-11-23T10:23:40Z</time>
      </trkpt>
      <trkpt lat="44.44793701171875" lon="11.173889636993408">
        <ele>329</ele>
        <time>2003-11-23T10:24:40Z</time>
      </trkpt>
      <trkpt lat="44.447786808013916" lon="11.174018383026123">
        <ele>330</ele>
        <time>2003-11-23T10:24:45Z</time>
      </trkpt>
      <trkpt lat="44.448022758588195" lon="11.174297332763672">
        <ele>333</ele>
        <time>2003-11-23T10:25:00Z</time>
      </trkpt>
      <trkpt lat="44.448387622833252" lon="11.174533367156982">
        <ele>336</ele>
        <time>2003-11-23T10:25:20Z</time>
      </trkpt>
      <trkpt lat="44.44868803024292" lon="11.174726486206055">
        <ele>339</ele>
        <time>2003-11-23T10:25:36Z</time>
      </trkpt>
      <trkpt lat="44.44892406463623" lon="11.174876689910889">
        <ele>340</ele>
        <time>2003-11-23T10:25:52Z</time>
      </trkpt>
      <trkpt lat="44.449074268341064" lon="11.174941062927246">
        <ele>344</ele>
        <time>2003-11-23T10:26:03Z</time>
      </trkpt>
      <trkpt lat="44.449095726013184" lon="11.174941062927246">
        <ele>343</ele>
        <time>2003-11-23T10:26:04Z</time>
      </trkpt>
      <trkpt lat="44.449417591094971" lon="11.175005435943604">
        <ele>347</ele>
        <time>2003-11-23T10:26:23Z</time>
      </trkpt>
      <trkpt lat="44.449846660718322" lon="11.17509126663208">
        <ele>349</ele>
        <time>2003-11-23T10:26:49Z</time>
      </trkpt>
      <trkpt lat="44.449911117553711" lon="11.17509126663208">
        <ele>350</ele>
        <time>2003-11-23T10:27:02Z</time>
      </trkpt>
      <trkpt lat="44.449911117553711" lon="11.17509126663208">
        <ele>349</ele>
        <time>2003-11-23T10:27:19Z</time>
      </trkpt>
      <trkpt lat="44.449911117553711" lon="11.17509126663208">
        <ele>349</ele>
        <time>2003-11-23T10:28:37Z</time>
      </trkpt>
      <trkpt lat="44.450082778930664" lon="11.175327301025391">
        <ele>349</ele>
        <time>2003-11-23T10:28:44Z</time>
      </trkpt>
      <trkpt lat="44.450211524963379" lon="11.175670623779297">
        <ele>345</ele>
        <time>2003-11-23T10:28:48Z</time>
      </trkpt>
      <trkpt lat="44.450318813323975" lon="11.175949573516846">
        <ele>341</ele>
        <time>2003-11-23T10:28:50Z</time>
      </trkpt>
      <trkpt lat="44.450511932373047" lon="11.176443099975586">
        <ele>338</ele>
        <time>2003-11-23T10:28:53Z</time>
      </trkpt>
      <trkpt lat="44.450640678405762" lon="11.176786422729492">
        <ele>335</ele>
        <time>2003-11-23T10:28:55Z</time>
      </trkpt>
      <trkpt lat="44.450833797454834" lon="11.177494525909424">
        <ele>332</ele>
        <time>2003-11-23T10:28:59Z</time>
      </trkpt>
      <trkpt lat="44.450898170471191" lon="11.178116798400879">
        <ele>330</ele>
        <time>2003-11-23T10:29:03Z</time>
      </trkpt>
      <trkpt lat="44.45094108581543" lon="11.178288459777832">
        <ele>328</ele>
        <time>2003-11-23T10:29:04Z</time>
      </trkpt>
      <trkpt lat="44.451091289520264" lon="11.178781986236572">
        <ele>324</ele>
        <time>2003-11-23T10:29:07Z</time>
      </trkpt>
      <trkpt lat="44.451241493225098" lon="11.179125308990479">
        <ele>320</ele>
        <time>2003-11-23T10:29:09Z</time>
      </trkpt>
      <trkpt lat="44.451391696929932" lon="11.179468631744385">
        <ele>315</ele>
        <time>2003-11-23T10:29:11Z</time>
      </trkpt>
      <trkpt lat="44.451584815979004" lon="11.179790496826172">
        <ele>310</ele>
        <time>2003-11-23T10:29:13Z</time>
      </trkpt>
      <trkpt lat="44.451799392700195" lon="11.180047988891602">
        <ele>304</ele>
        <time>2003-11-23T10:29:15Z</time>
      </trkpt>
      <trkpt lat="44.451906681060791" lon="11.180176734924316">
        <ele>302</ele>
        <time>2003-11-23T10:29:16Z</time>
      </trkpt>
      <trkpt lat="44.452035427093506" lon="11.180434226989746">
        <ele>297</ele>
        <time>2003-11-23T10:30:41Z</time>
      </trkpt>
      <trkpt lat="44.452035427093506" lon="11.179876327514648">
        <ele>299</ele>
        <time>2003-11-23T10:30:52Z</time>
      </trkpt>
      <trkpt lat="44.452142715454102" lon="11.179382801055908">
        <ele>302</ele>
        <time>2003-11-23T10:31:05Z</time>
      </trkpt>
      <trkpt lat="44.452292919158936" lon="11.178889274597168">
        <ele>304</ele>
        <time>2003-11-23T10:31:22Z</time>
      </trkpt>
      <trkpt lat="44.45237866602838" lon="11.178610324859619">
        <ele>306</ele>
        <time>2003-11-23T10:31:32Z</time>
      </trkpt>
      <trkpt lat="44.452593326568604" lon="11.178374290466309">
        <ele>309</ele>
        <time>2003-11-23T10:31:46Z</time>
      </trkpt>
      <trkpt lat="44.452979564666748" lon="11.178181171417236">
        <ele>312</ele>
        <time>2003-11-23T10:32:04Z</time>
      </trkpt>
      <trkpt lat="44.453601837158203" lon="11.178030967712402">
        <ele>311</ele>
        <time>2003-11-23T10:32:26Z</time>
      </trkpt>
      <trkpt lat="44.454159736633301" lon="11.177923679351807">
        <ele>313</ele>
        <time>2003-11-23T10:32:44Z</time>
      </trkpt>
      <trkpt lat="44.454782009124756" lon="11.178116798400879">
        <ele>311</ele>
        <time>2003-11-23T10:33:02Z</time>
      </trkpt>
      <trkpt lat="44.45568323135376" lon="11.178288459777832">
        <ele>308</ele>
        <time>2003-11-23T10:33:24Z</time>
      </trkpt>
      <trkpt lat="44.455854892730713" lon="11.178288459777832">
        <ele>305</ele>
        <time>2003-11-23T10:33:28Z</time>
      </trkpt>
      <trkpt lat="44.456219673156738" lon="11.178288459777832">
        <ele>302</ele>
        <time>2003-11-23T10:33:37Z</time>
      </trkpt>
      <trkpt lat="44.456498622894287" lon="11.178245460614562">
        <ele>300</ele>
        <time>2003-11-23T10:33:42Z</time>
      </trkpt>
      <trkpt lat="44.456777572631836" lon="11.178224086761475">
        <ele>297</ele>
        <time>2003-11-23T10:33:47Z</time>
      </trkpt>
      <trkpt lat="44.457035064697266" lon="11.17809534072876">
        <ele>294</ele>
        <time>2003-11-23T10:33:54Z</time>
      </trkpt>
      <trkpt lat="44.457206726074219" lon="11.177880764007568">
        <ele>289</ele>
        <time>2003-11-23T10:33:58Z</time>
      </trkpt>
      <trkpt lat="44.457335472106934" lon="11.177709102630615">
        <ele>285</ele>
        <time>2003-11-23T10:34:00Z</time>
      </trkpt>
      <trkpt lat="44.457442760467529" lon="11.177494525909424">
        <ele>282</ele>
        <time>2003-11-23T10:34:02Z</time>
      </trkpt>
      <trkpt lat="44.457592964172363" lon="11.177194118499756">
        <ele>278</ele>
        <time>2003-11-23T10:34:05Z</time>
      </trkpt>
      <trkpt lat="44.457786083221436" lon="11.17708683013916">
        <ele>274</ele>
        <time>2003-11-23T10:34:09Z</time>
      </trkpt>
      <trkpt lat="44.457850540056825" lon="11.177043914794922">
        <ele>272</ele>
        <time>2003-11-23T10:34:10Z</time>
      </trkpt>
      <trkpt lat="44.458065032958984" lon="11.176915168762207">
        <ele>268</ele>
        <time>2003-11-23T10:34:13Z</time>
      </trkpt>
      <trkpt lat="44.45817232131958" lon="11.17682933807373">
        <ele>266</ele>
        <time>2003-11-23T10:34:15Z</time>
      </trkpt>
      <trkpt lat="44.458279609680176" lon="11.176893711090088">
        <ele>264</ele>
        <time>2003-11-23T10:34:17Z</time>
      </trkpt>
      <trkpt lat="44.458322525024414" lon="11.17708683013916">
        <ele>261</ele>
        <time>2003-11-23T10:34:19Z</time>
      </trkpt>
      <trkpt lat="44.458386898040771" lon="11.177279865369201">
        <ele>259</ele>
        <time>2003-11-23T10:34:21Z</time>
      </trkpt>
      <trkpt lat="44.458408439531922" lon="11.177687561139464">
        <ele>255</ele>
        <time>2003-11-23T10:34:30Z</time>
      </trkpt>
      <trkpt lat="44.458472728729248" lon="11.177794933319092">
        <ele>255</ele>
        <time>2003-11-23T10:34:57Z</time>
      </trkpt>
      <trkpt lat="44.458580017089844" lon="11.177837764844298">
        <ele>251</ele>
        <time>2003-11-23T10:35:00Z</time>
      </trkpt>
      <trkpt lat="44.458601474761963" lon="11.177859306335449">
        <ele>251</ele>
        <time>2003-11-23T10:35:01Z</time>
      </trkpt>
      <trkpt lat="44.458687305450439" lon="11.177966594696045">
        <ele>249</ele>
        <time>2003-11-23T10:35:04Z</time>
      </trkpt>
      <trkpt lat="44.458708763122559" lon="11.177880764007568">
        <ele>244</ele>
        <time>2003-11-23T10:35:11Z</time>
      </trkpt>
      <trkpt lat="44.458708763122559" lon="11.177880764007568">
        <ele>243</ele>
        <time>2003-11-23T10:35:12Z</time>
      </trkpt>
      <trkpt lat="44.458708763122559" lon="11.177752017974854">
        <ele>240</ele>
        <time>2003-11-23T10:35:14Z</time>
      </trkpt>
      <trkpt lat="44.458708763122559" lon="11.177215576171875">
        <ele>238</ele>
        <time>2003-11-23T10:35:19Z</time>
      </trkpt>
      <trkpt lat="44.458708763122559" lon="11.176893711090088">
        <ele>234</ele>
        <time>2003-11-23T10:35:22Z</time>
      </trkpt>
      <trkpt lat="44.458730220794678" lon="11.176721965894103">
        <ele>232</ele>
        <time>2003-11-23T10:35:24Z</time>
      </trkpt>
      <trkpt lat="44.458730220794678" lon="11.176550388336182">
        <ele>230</ele>
        <time>2003-11-23T10:35:27Z</time>
      </trkpt>
      <trkpt lat="44.458708763122559" lon="11.176486015319824">
        <ele>228</ele>
        <time>2003-11-23T10:35:28Z</time>
      </trkpt>
      <trkpt lat="44.458580017089844" lon="11.176249980926514">
        <ele>223</ele>
        <time>2003-11-23T10:35:32Z</time>
      </trkpt>
      <trkpt lat="44.458472728729248" lon="11.176185607910156">
        <ele>220</ele>
        <time>2003-11-23T10:35:34Z</time>
      </trkpt>
      <trkpt lat="44.458451271057129" lon="11.176013862714171">
        <ele>216</ele>
        <time>2003-11-23T10:35:38Z</time>
      </trkpt>
      <trkpt lat="44.458515560254455" lon="11.175971031188965">
        <ele>214</ele>
        <time>2003-11-23T10:35:39Z</time>
      </trkpt>
      <trkpt lat="44.458622932434082" lon="11.175885200500488">
        <ele>214</ele>
        <time>2003-11-23T10:35:41Z</time>
      </trkpt>
      <trkpt lat="44.458580017089844" lon="11.175734996795654">
        <ele>209</ele>
        <time>2003-11-23T10:35:46Z</time>
      </trkpt>
      <trkpt lat="44.458472728729248" lon="11.175734996795654">
        <ele>206</ele>
        <time>2003-11-23T10:35:48Z</time>
      </trkpt>
      <trkpt lat="44.458386898040771" lon="11.175713539123535">
        <ele>205</ele>
        <time>2003-11-23T10:35:50Z</time>
      </trkpt>
      <trkpt lat="44.458236694335938" lon="11.175048435106874">
        <ele>189</ele>
        <time>2003-11-23T10:36:09Z</time>
      </trkpt>
      <trkpt lat="44.458451271057129" lon="11.17485523223877">
        <ele>185</ele>
        <time>2003-11-23T10:36:12Z</time>
      </trkpt>
      <trkpt lat="44.458494186401367" lon="11.174769401550293">
        <ele>184</ele>
        <time>2003-11-23T10:36:13Z</time>
      </trkpt>
      <trkpt lat="44.458601474761963" lon="11.174576282501221">
        <ele>180</ele>
        <time>2003-11-23T10:36:16Z</time>
      </trkpt>
      <trkpt lat="44.458665763959289" lon="11.174426078796387">
        <ele>177</ele>
        <time>2003-11-23T10:36:18Z</time>
      </trkpt>
      <trkpt lat="44.458773136138916" lon="11.174232959747314">
        <ele>176</ele>
        <time>2003-11-23T10:36:21Z</time>
      </trkpt>
      <trkpt lat="44.458880424499512" lon="11.174147129058838">
        <ele>172</ele>
        <time>2003-11-23T10:36:23Z</time>
      </trkpt>
      <trkpt lat="44.459052085876465" lon="11.174039840698242">
        <ele>167</ele>
        <time>2003-11-23T10:36:26Z</time>
      </trkpt>
      <trkpt lat="44.459331035614014" lon="11.174039840698242">
        <ele>163</ele>
        <time>2003-11-23T10:36:30Z</time>
      </trkpt>
      <trkpt lat="44.459567070007324" lon="11.174039840698242">
        <ele>159</ele>
        <time>2003-11-23T10:36:33Z</time>
      </trkpt>
      <trkpt lat="44.459652900695801" lon="11.174061298370361">
        <ele>158</ele>
        <time>2003-11-23T10:36:34Z</time>
      </trkpt>
      <trkpt lat="44.459824562072754" lon="11.174125671386719">
        <ele>155</ele>
        <time>2003-11-23T10:36:36Z</time>
      </trkpt>
      <trkpt lat="44.460232341662049" lon="11.174254417419434">
        <ele>149</ele>
        <time>2003-11-23T10:36:40Z</time>
      </trkpt>
      <trkpt lat="44.460575580596924" lon="11.174340164288878">
        <ele>144</ele>
        <time>2003-11-23T10:36:43Z</time>
      </trkpt>
      <trkpt lat="44.460983276367188" lon="11.174404621124268">
        <ele>139</ele>
        <time>2003-11-23T10:36:46Z</time>
      </trkpt>
      <trkpt lat="44.461326599121094" lon="11.174447536468506">
        <ele>133</ele>
        <time>2003-11-23T10:36:49Z</time>
      </trkpt>
      <trkpt lat="44.461433887481689" lon="11.174447536468506">
        <ele>130</ele>
        <time>2003-11-23T10:36:50Z</time>
      </trkpt>
      <trkpt lat="44.461712837219238" lon="11.174511909484863">
        <ele>125</ele>
        <time>2003-11-23T10:36:53Z</time>
      </trkpt>
      <trkpt lat="44.461863040924072" lon="11.17459774017334">
        <ele>120</ele>
        <time>2003-11-23T10:36:55Z</time>
      </trkpt>
      <trkpt lat="44.462034702301025" lon="11.174683570861816">
        <ele>118</ele>
        <time>2003-11-23T10:36:57Z</time>
      </trkpt>
      <trkpt lat="44.462399482727051" lon="11.174576282501221">
        <ele>113</ele>
        <time>2003-11-23T10:37:01Z</time>
      </trkpt>
      <trkpt lat="44.462592601776123" lon="11.174511909484863">
        <ele>110</ele>
        <time>2003-11-23T10:37:03Z</time>
      </trkpt>
      <trkpt lat="44.462893009185791" lon="11.174747860059142">
        <ele>108</ele>
        <time>2003-11-23T10:37:07Z</time>
      </trkpt>
      <trkpt lat="44.463064670562744" lon="11.175026893615723">
        <ele>108</ele>
        <time>2003-11-23T10:37:10Z</time>
      </trkpt>
      <trkpt lat="44.463300704956055" lon="11.175606334581971">
        <ele>111</ele>
        <time>2003-11-23T10:37:18Z</time>
      </trkpt>
      <trkpt lat="44.463300704956055" lon="11.175670623779297">
        <ele>111</ele>
        <time>2003-11-23T10:37:19Z</time>
      </trkpt>
      <trkpt lat="44.463365077972412" lon="11.175906658172607">
        <ele>114</ele>
        <time>2003-11-23T10:37:24Z</time>
      </trkpt>
      <trkpt lat="44.46340799331665" lon="11.176035404205322">
        <ele>115</ele>
        <time>2003-11-23T10:37:27Z</time>
      </trkpt>
      <trkpt lat="44.463450908660889" lon="11.176228523254395">
        <ele>118</ele>
        <time>2003-11-23T10:37:32Z</time>
      </trkpt>
      <trkpt lat="44.463472366333008" lon="11.176314437761903">
        <ele>120</ele>
        <time>2003-11-23T10:37:44Z</time>
      </trkpt>
      <trkpt lat="44.463472366333008" lon="11.176314437761903">
        <ele>120</ele>
        <time>2003-11-23T10:38:29Z</time>
      </trkpt>
      <trkpt lat="44.463472366333008" lon="11.176314437761903">
        <ele>121</ele>
        <time>2003-11-23T10:38:45Z</time>
      </trkpt>
      <trkpt lat="44.463472366333008" lon="11.176314437761903">
        <ele>120</ele>
        <time>2003-11-23T10:39:01Z</time>
      </trkpt>
      <trkpt lat="44.463472366333008" lon="11.176314437761903">
        <ele>121</ele>
        <time>2003-11-23T10:39:29Z</time>
      </trkpt>
      <trkpt lat="44.463472366333008" lon="11.176314437761903">
        <ele>121</ele>
        <time>2003-11-23T10:39:32Z</time>
      </trkpt>
      <trkpt lat="44.463493824005127" lon="11.176721965894103">
        <ele>120</ele>
        <time>2003-11-23T10:39:38Z</time>
      </trkpt>
      <trkpt lat="44.463515281677246" lon="11.17734432220459">
        <ele>120</ele>
        <time>2003-11-23T10:39:54Z</time>
      </trkpt>
      <trkpt lat="44.46366548538208" lon="11.178116798400879">
        <ele>119</ele>
        <time>2003-11-23T10:40:09Z</time>
      </trkpt>
      <trkpt lat="44.463880062103271" lon="11.178975105285645">
        <ele>116</ele>
        <time>2003-11-23T10:40:19Z</time>
      </trkpt>
      <trkpt lat="44.464073181152344" lon="11.179704666137695">
        <ele>112</ele>
        <time>2003-11-23T10:40:26Z</time>
      </trkpt>
      <trkpt lat="44.464094638824463" lon="11.17983341217041">
        <ele>112</ele>
        <time>2003-11-23T10:40:27Z</time>
      </trkpt>
      <trkpt lat="44.464373588562012" lon="11.180992126464844">
        <ele>111</ele>
        <time>2003-11-23T10:40:40Z</time>
      </trkpt>
      <trkpt lat="44.464695537462831" lon="11.18230096064508">
        <ele>111</ele>
        <time>2003-11-23T10:41:00Z</time>
      </trkpt>
      <trkpt lat="44.465017318725586" lon="11.18358850479126">
        <ele>108</ele>
        <time>2003-11-23T10:41:18Z</time>
      </trkpt>
      <trkpt lat="44.465060234069824" lon="11.18382453918457">
        <ele>109</ele>
        <time>2003-11-23T10:41:21Z</time>
      </trkpt>
      <trkpt lat="44.464974403381348" lon="11.184790134429932">
        <ele>109</ele>
        <time>2003-11-23T10:41:36Z</time>
      </trkpt>
      <trkpt lat="44.465103065595031" lon="11.186013221740723">
        <ele>109</ele>
        <time>2003-11-23T10:41:55Z</time>
      </trkpt>
      <trkpt lat="44.465146064758301" lon="11.186356460675597">
        <ele>108</ele>
        <time>2003-11-23T10:42:00Z</time>
      </trkpt>
      <trkpt lat="44.465146064758301" lon="11.18657112121582">
        <ele>108</ele>
        <time>2003-11-23T10:42:03Z</time>
      </trkpt>
      <trkpt lat="44.465081691741943" lon="11.186850070953369">
        <ele>108</ele>
        <time>2003-11-23T10:42:07Z</time>
      </trkpt>
      <trkpt lat="44.464759826660156" lon="11.187515258789063">
        <ele>106</ele>
        <time>2003-11-23T10:42:18Z</time>
      </trkpt>
      <trkpt lat="44.464716911315918" lon="11.187794208526611">
        <ele>104</ele>
        <time>2003-11-23T10:42:22Z</time>
      </trkpt>
      <trkpt lat="44.464759826660156" lon="11.188008785247803">
        <ele>104</ele>
        <time>2003-11-23T10:42:25Z</time>
      </trkpt>
      <trkpt lat="44.465081691741943" lon="11.189124584197998">
        <ele>101</ele>
        <time>2003-11-23T10:42:38Z</time>
      </trkpt>
      <trkpt lat="44.465274810791016" lon="11.189789772033691">
        <ele>99</ele>
        <time>2003-11-23T10:42:45Z</time>
      </trkpt>
      <trkpt lat="44.465296268463135" lon="11.190454959869385">
        <ele>99</ele>
        <time>2003-11-23T10:42:52Z</time>
      </trkpt>
      <trkpt lat="44.465382099151611" lon="11.191034317016602">
        <ele>100</ele>
        <time>2003-11-23T10:43:00Z</time>
      </trkpt>
      <trkpt lat="44.465854167938232" lon="11.191892623901367">
        <ele>99</ele>
        <time>2003-11-23T10:43:14Z</time>
      </trkpt>
      <trkpt lat="44.466326236724854" lon="11.192836761474609">
        <ele>98</ele>
        <time>2003-11-23T10:43:29Z</time>
      </trkpt>
      <trkpt lat="44.466804508119822" lon="11.193833285942674">
        <ele>97</ele>
        <time>2002-11-23T10:33:42Z</time>
      </trkpt>
      <trkpt lat="44.466733932495117" lon="11.194038391113281">
        <ele>95</ele>
        <time>2002-11-23T09:28:30Z</time>
      </trkpt>
      <trkpt lat="44.466991424560547" lon="11.195089817047119">
        <ele>92</ele>
        <time>2002-11-23T09:28:46Z</time>
      </trkpt>
      <trkpt lat="44.467012882232666" lon="11.195261478424072">
        <ele>91</ele>
        <time>2002-11-23T09:28:48Z</time>
      </trkpt>
      <trkpt lat="44.46690559387207" lon="11.195604801177979">
        <ele>90</ele>
        <time>2002-11-23T09:28:52Z</time>
      </trkpt>
      <trkpt lat="44.466347694396973" lon="11.196248531341553">
        <ele>90</ele>
        <time>2002-11-23T09:29:06Z</time>
      </trkpt>
      <trkpt lat="44.465660965070128" lon="11.197021007537842">
        <ele>91</ele>
        <time>2002-11-23T09:29:28Z</time>
      </trkpt>
      <trkpt lat="44.465146064758301" lon="11.197750568389893">
        <ele>94</ele>
        <time>2002-11-23T09:29:48Z</time>
      </trkpt>
      <trkpt lat="44.465103065595031" lon="11.197836399078369">
        <ele>94</ele>
        <time>2002-11-23T09:29:50Z</time>
      </trkpt>
      <trkpt lat="44.464781284332275" lon="11.198759078979492">
        <ele>94</ele>
        <time>2002-11-23T09:30:09Z</time>
      </trkpt>
      <trkpt lat="44.464652538299561" lon="11.199209690093994">
        <ele>95</ele>
        <time>2002-11-23T09:30:19Z</time>
      </trkpt>
      <trkpt lat="44.464394962415099" lon="11.199939334765077">
        <ele>95</ele>
        <time>2002-11-23T09:30:31Z</time>
      </trkpt>
      <trkpt lat="44.464394962415099" lon="11.200089538469911">
        <ele>106</ele>
        <time>2003-02-15T11:02:08Z</time>
      </trkpt>
      <trkpt lat="44.464609622955322" lon="11.200475692749023">
        <ele>106</ele>
        <time>2003-02-15T11:02:20Z</time>
      </trkpt>
      <trkpt lat="44.46542501449585" lon="11.200861930847168">
        <ele>104</ele>
        <time>2003-02-15T11:02:37Z</time>
      </trkpt>
      <trkpt lat="44.466519439592957" lon="11.201591491699219">
        <ele>103</ele>
        <time>2003-02-15T11:02:56Z</time>
      </trkpt>
      <trkpt lat="44.466648101806641" lon="11.201634407043457">
        <ele>104</ele>
        <time>2003-02-15T11:02:58Z</time>
      </trkpt>
      <trkpt lat="44.466841220855713" lon="11.201677322387695">
        <ele>105</ele>
        <time>2003-02-15T11:03:02Z</time>
      </trkpt>
      <trkpt lat="44.467055797576904" lon="11.201741695404053">
        <ele>105</ele>
        <time>2003-02-15T11:03:07Z</time>
      </trkpt>
      <trkpt lat="44.467635238543153" lon="11.201763236895204">
        <ele>109</ele>
        <time>2003-02-15T11:03:21Z</time>
      </trkpt>
      <trkpt lat="44.4681715965271" lon="11.201763236895204">
        <ele>112</ele>
        <time>2003-02-15T11:03:37Z</time>
      </trkpt>
      <trkpt lat="44.468514919281006" lon="11.202149391174316">
        <ele>112</ele>
        <time>2003-02-15T11:03:49Z</time>
      </trkpt>
      <trkpt lat="44.468836784362793" lon="11.202685832977295">
        <ele>111</ele>
        <time>2003-02-15T11:03:58Z</time>
      </trkpt>
      <trkpt lat="44.469738006591797" lon="11.204145038500428">
        <ele>110</ele>
        <time>2003-02-15T11:04:19Z</time>
      </trkpt>
      <trkpt lat="44.470360279083252" lon="11.20506763458252">
        <ele>108</ele>
        <time>2003-02-15T11:04:35Z</time>
      </trkpt>
      <trkpt lat="44.470832264050841" lon="11.205496788024902">
        <ele>109</ele>
        <time>2003-02-15T11:04:43Z</time>
      </trkpt>
      <trkpt lat="44.471325874328613" lon="11.205732822418213">
        <ele>108</ele>
        <time>2003-02-15T11:04:50Z</time>
      </trkpt>
      <trkpt lat="44.471604824066162" lon="11.206033229827881">
        <ele>106</ele>
        <time>2003-02-15T11:04:54Z</time>
      </trkpt>
      <trkpt lat="44.471755027770996" lon="11.20631217956543">
        <ele>104</ele>
        <time>2003-02-15T11:04:57Z</time>
      </trkpt>
      <trkpt lat="44.472184181213379" lon="11.207835674285889">
        <ele>102</ele>
        <time>2003-02-15T11:05:11Z</time>
      </trkpt>
      <trkpt lat="44.472484588623047" lon="11.20955228805542">
        <ele>100</ele>
        <time>2003-02-15T11:05:27Z</time>
      </trkpt>
      <trkpt lat="44.473085403442383" lon="11.210947036743164">
        <ele>99</ele>
        <time>2003-02-15T11:05:43Z</time>
      </trkpt>
      <trkpt lat="44.473750591278076" lon="11.21253490447998">
        <ele>98</ele>
        <time>2003-02-15T11:06:02Z</time>
      </trkpt>
      <trkpt lat="44.474029541015625" lon="11.213157176971436">
        <ele>97</ele>
        <time>2003-02-15T11:06:10Z</time>
      </trkpt>
      <trkpt lat="44.474780559539795" lon="11.214272975921631">
        <ele>96</ele>
        <time>2003-02-15T11:06:28Z</time>
      </trkpt>
      <trkpt lat="44.475080966949463" lon="11.214873790740967">
        <ele>94</ele>
        <time>2003-02-15T11:06:35Z</time>
      </trkpt>
      <trkpt lat="44.475209712982178" lon="11.215646266937256">
        <ele>91</ele>
        <time>2003-02-15T11:06:42Z</time>
      </trkpt>
      <trkpt lat="44.475553035736084" lon="11.217191219329834">
        <ele>90</ele>
        <time>2003-02-15T11:06:56Z</time>
      </trkpt>
      <trkpt lat="44.476325511932373" lon="11.218886375427246">
        <ele>90</ele>
        <time>2003-02-15T11:07:14Z</time>
      </trkpt>
      <trkpt lat="44.477291107177734" lon="11.220560073852539">
        <ele>89</ele>
        <time>2003-02-15T11:07:35Z</time>
      </trkpt>
      <trkpt lat="44.477505683898926" lon="11.221096515655518">
        <ele>89</ele>
        <time>2003-02-15T11:07:41Z</time>
      </trkpt>
      <trkpt lat="44.477999210357666" lon="11.222555637359619">
        <ele>89</ele>
        <time>2003-02-15T11:07:57Z</time>
      </trkpt>
      <trkpt lat="44.478471279144287" lon="11.224079132080078">
        <ele>90</ele>
        <time>2003-02-15T11:08:14Z</time>
      </trkpt>
      <trkpt lat="44.47890043258667" lon="11.225109100341797">
        <ele>93</ele>
        <time>2003-02-15T11:08:31Z</time>
      </trkpt>
      <trkpt lat="44.479222297668457" lon="11.225752830505371">
        <ele>91</ele>
        <time>2003-02-15T11:08:40Z</time>
      </trkpt>
      <trkpt lat="44.479308128356934" lon="11.226181983947754">
        <ele>91</ele>
        <time>2003-02-15T11:08:44Z</time>
      </trkpt>
      <trkpt lat="44.479308128356934" lon="11.22652530670166">
        <ele>91</ele>
        <time>2003-02-15T11:08:47Z</time>
      </trkpt>
      <trkpt lat="44.479522705078125" lon="11.227083206176758">
        <ele>89</ele>
        <time>2003-02-15T11:08:53Z</time>
      </trkpt>
      <trkpt lat="44.480123519897461" lon="11.227340698242188">
        <ele>86</ele>
        <time>2003-02-15T11:09:01Z</time>
      </trkpt>
      <trkpt lat="44.48040246963501" lon="11.227576732635498">
        <ele>86</ele>
        <time>2003-02-15T11:09:05Z</time>
      </trkpt>
      <trkpt lat="44.481625640764832" lon="11.228585159406066">
        <ele>84</ele>
        <time>2003-02-15T11:09:23Z</time>
      </trkpt>
      <trkpt lat="44.481775760650635" lon="11.228649616241455">
        <ele>84</ele>
        <time>2003-02-15T11:09:25Z</time>
      </trkpt>
      <trkpt lat="44.482097625732422" lon="11.229057312011719">
        <ele>82</ele>
        <time>2003-02-15T11:09:30Z</time>
      </trkpt>
      <trkpt lat="44.48214054107666" lon="11.22952938079834">
        <ele>81</ele>
        <time>2003-02-15T11:09:34Z</time>
      </trkpt>
      <trkpt lat="44.482290660962462" lon="11.231245994567871">
        <ele>80</ele>
        <time>2003-02-15T11:09:49Z</time>
      </trkpt>
      <trkpt lat="44.48239803314209" lon="11.232790863141418">
        <ele>78</ele>
        <time>2003-02-15T11:10:02Z</time>
      </trkpt>
      <trkpt lat="44.482805728912354" lon="11.234636306762695">
        <ele>79</ele>
        <time>2003-02-15T11:10:18Z</time>
      </trkpt>
      <trkpt lat="44.482805728912354" lon="11.236352920532227">
        <ele>78</ele>
        <time>2003-02-15T11:10:34Z</time>
      </trkpt>
      <trkpt lat="44.482934474945068" lon="11.237618923187256">
        <ele>79</ele>
        <time>2003-02-15T11:10:50Z</time>
      </trkpt>
      <trkpt lat="44.483406459912658" lon="11.239056587219238">
        <ele>81</ele>
        <time>2003-02-15T11:11:10Z</time>
      </trkpt>
      <trkpt lat="44.483792781829834" lon="11.240622997283936">
        <ele>81</ele>
        <time>2003-02-15T11:11:30Z</time>
      </trkpt>
      <trkpt lat="44.484093189239502" lon="11.242125034332275">
        <ele>78</ele>
        <time>2003-02-15T11:11:46Z</time>
      </trkpt>
      <trkpt lat="44.484372138977051" lon="11.243841564282775">
        <ele>79</ele>
        <time>2003-02-15T11:12:06Z</time>
      </trkpt>
      <trkpt lat="44.484372138977051" lon="11.243927478790283">
        <ele>79</ele>
        <time>2003-02-15T11:12:07Z</time>
      </trkpt>
      <trkpt lat="44.484329223632813" lon="11.244206428527832">
        <ele>79</ele>
        <time>2003-02-15T11:12:11Z</time>
      </trkpt>
      <trkpt lat="44.484071731567383" lon="11.245579719543457">
        <ele>82</ele>
        <time>2003-02-15T11:12:31Z</time>
      </trkpt>
      <trkpt lat="44.483985900878906" lon="11.245772838592529">
        <ele>82</ele>
        <time>2003-02-15T11:12:34Z</time>
      </trkpt>
      <trkpt lat="44.483213424682617" lon="11.246695518493652">
        <ele>85</ele>
        <time>2003-02-15T11:12:55Z</time>
      </trkpt>
      <trkpt lat="44.482998764142394" lon="11.246953010559082">
        <ele>85</ele>
        <time>2003-02-15T11:13:01Z</time>
      </trkpt>
      <trkpt lat="44.482913017272949" lon="11.247081840410829">
        <ele>85</ele>
        <time>2003-02-15T11:13:04Z</time>
      </trkpt>
      <trkpt lat="44.482591236010194" lon="11.248176097869873">
        <ele>86</ele>
        <time>2003-02-15T11:13:22Z</time>
      </trkpt>
      <trkpt lat="44.48218354023993" lon="11.2489914894104">
        <ele>88</ele>
        <time>2003-02-15T11:13:36Z</time>
      </trkpt>
      <trkpt lat="44.481475437059999" lon="11.250085830688477">
        <ele>88</ele>
        <time>2003-02-15T11:13:54Z</time>
      </trkpt>
      <trkpt lat="44.481410980224609" lon="11.250321865081787">
        <ele>88</ele>
        <time>2003-02-15T11:13:57Z</time>
      </trkpt>
      <trkpt lat="44.48138952255249" lon="11.250858306884766">
        <ele>88</ele>
        <time>2003-02-15T11:14:03Z</time>
      </trkpt>
      <trkpt lat="44.481625640764832" lon="11.252574920654297">
        <ele>87</ele>
        <time>2003-02-15T11:14:20Z</time>
      </trkpt>
      <trkpt lat="44.481668472290039" lon="11.253905296325684">
        <ele>88</ele>
        <time>2003-02-15T11:14:33Z</time>
      </trkpt>
      <trkpt lat="44.481668472290039" lon="11.254205703735352">
        <ele>88</ele>
        <time>2003-02-15T11:14:37Z</time>
      </trkpt>
      <trkpt lat="44.481539726257324" lon="11.254634940996766">
        <ele>88</ele>
        <time>2003-02-15T11:14:41Z</time>
      </trkpt>
      <trkpt lat="44.481539726257324" lon="11.254892265424132">
        <ele>87</ele>
        <time>2003-02-15T11:14:44Z</time>
      </trkpt>
      <trkpt lat="44.481368064880371" lon="11.257102489471436">
        <ele>88</ele>
        <time>2003-02-15T11:15:06Z</time>
      </trkpt>
      <trkpt lat="44.481453895568848" lon="11.259269714355469">
        <ele>85</ele>
        <time>2003-02-15T11:15:30Z</time>
      </trkpt>
      <trkpt lat="44.481496810913086" lon="11.259570121765137">
        <ele>84</ele>
        <time>2003-02-15T11:15:33Z</time>
      </trkpt>
      <trkpt lat="44.481475437059999" lon="11.259784698486328">
        <ele>85</ele>
        <time>2003-02-15T11:15:35Z</time>
      </trkpt>
      <trkpt lat="44.481260776519775" lon="11.260364139452577">
        <ele>83</ele>
        <time>2003-02-15T11:15:41Z</time>
      </trkpt>
      <trkpt lat="44.480359638109803" lon="11.261651515960693">
        <ele>81</ele>
        <time>2003-02-15T11:15:57Z</time>
      </trkpt>
      <trkpt lat="44.479672908782959" lon="11.262617111206055">
        <ele>78</ele>
        <time>2003-02-15T11:16:08Z</time>
      </trkpt>
      <trkpt lat="44.478986263275146" lon="11.263797283172607">
        <ele>76</ele>
        <time>2003-02-15T11:16:21Z</time>
      </trkpt>
      <trkpt lat="44.478921890258789" lon="11.264805793762207">
        <ele>75</ele>
        <time>2003-02-15T11:16:31Z</time>
      </trkpt>
      <trkpt lat="44.478964805603027" lon="11.265084659680724">
        <ele>75</ele>
        <time>2003-02-15T11:16:34Z</time>
      </trkpt>
      <trkpt lat="44.47935095988214" lon="11.2664794921875">
        <ele>75</ele>
        <time>2003-02-15T11:16:51Z</time>
      </trkpt>
      <trkpt lat="44.47939395904541" lon="11.266629695892334">
        <ele>75</ele>
        <time>2003-02-15T11:16:53Z</time>
      </trkpt>
      <trkpt lat="44.479501163586974" lon="11.267015933990479">
        <ele>75</ele>
        <time>2003-02-15T11:16:59Z</time>
      </trkpt>
      <trkpt lat="44.479737281799316" lon="11.26817456446588">
        <ele>72</ele>
        <time>2003-02-15T11:17:13Z</time>
      </trkpt>
      <trkpt lat="44.479780197143555" lon="11.268517971038818">
        <ele>72</ele>
        <time>2003-02-15T11:17:16Z</time>
      </trkpt>
      <trkpt lat="44.479608535766602" lon="11.270062923431396">
        <ele>69</ele>
        <time>2003-02-15T11:17:31Z</time>
      </trkpt>
      <trkpt lat="44.479587078094482" lon="11.270148837938905">
        <ele>69</ele>
        <time>2003-02-15T11:17:32Z</time>
      </trkpt>
      <trkpt lat="44.479522705078125" lon="11.270363330841064">
        <ele>69</ele>
        <time>2003-02-15T11:17:35Z</time>
      </trkpt>
      <trkpt lat="44.479479789733887" lon="11.270492076873779">
        <ele>69</ele>
        <time>2003-02-15T11:17:37Z</time>
      </trkpt>
      <trkpt lat="44.47939395904541" lon="11.270899772644043">
        <ele>70</ele>
        <time>2003-02-15T11:17:43Z</time>
      </trkpt>
      <trkpt lat="44.479372501373291" lon="11.27098560333252">
        <ele>69</ele>
        <time>2003-02-15T11:17:45Z</time>
      </trkpt>
      <trkpt lat="44.478943264111876" lon="11.270964061841369">
        <ele>70</ele>
        <time>2003-02-15T11:17:57Z</time>
      </trkpt>
      <trkpt lat="44.478843687102199" lon="11.270941682159901">
        <ele>70</ele>
        <time>1989-12-31T00:00:00Z</time>
      </trkpt>
    </trkseg>
  </trk>

  <trk>
    <name>Percorso 001</name>
    <trkseg>
      <trkpt lat="44.445171402767301" lon="11.208165166899562">
        <ele>297</ele>
        <time>1989-12-31T00:00:00Z</time>
      </trkpt>
      <trkpt lat="44.445228567346931" lon="11.208110768347979">
        <ele>297</ele>
        <time>1989-12-31T00:00:00Z</time>
      </trkpt>
      <trkpt lat="44.445340633392334" lon="11.207942962646484">
        <ele>297</ele>
        <time>2002-11-30T09:09:48Z</time>
      </trkpt>
      <trkpt lat="44.445512294769287" lon="11.20781421661377">
        <ele>293</ele>
        <time>2002-11-30T09:09:52Z</time>
      </trkpt>
      <trkpt lat="44.445555210113525" lon="11.207771301269531">
        <ele>293</ele>
        <time>2002-11-30T09:09:53Z</time>
      </trkpt>
      <trkpt lat="44.445641040802002" lon="11.207685470581055">
        <ele>292</ele>
        <time>2002-11-30T09:09:55Z</time>
      </trkpt>
      <trkpt lat="44.445619583129883" lon="11.207449436187744">
        <ele>289</ele>
        <time>2002-11-30T09:09:59Z</time>
      </trkpt>
      <trkpt lat="44.445426464080811" lon="11.207256317138672">
        <ele>287</ele>
        <time>2002-11-30T09:10:03Z</time>
      </trkpt>
      <trkpt lat="44.445040225982666" lon="11.20708473958075">
        <ele>286</ele>
        <time>2002-11-30T09:10:09Z</time>
      </trkpt>
      <trkpt lat="44.444611072540283" lon="11.207191860303283">
        <ele>283</ele>
        <time>2002-11-30T09:10:15Z</time>
      </trkpt>
      <trkpt lat="44.444375038146973" lon="11.207277774810791">
        <ele>281</ele>
        <time>2002-11-30T09:10:18Z</time>
      </trkpt>
      <trkpt lat="44.44394588470459" lon="11.207513809204102">
        <ele>276</ele>
        <time>2002-11-30T09:10:24Z</time>
      </trkpt>
      <trkpt lat="44.44345235824585" lon="11.20781421661377">
        <ele>274</ele>
        <time>2002-11-30T09:10:32Z</time>
      </trkpt>
      <trkpt lat="44.443387985229492" lon="11.207857131958008">
        <ele>274</ele>
        <time>2002-11-30T09:10:33Z</time>
      </trkpt>
      <trkpt lat="44.443280696868896" lon="11.20779275894165">
        <ele>272</ele>
        <time>2002-11-30T09:10:35Z</time>
      </trkpt>
      <trkpt lat="44.443130493164063" lon="11.207642639055848">
        <ele>270</ele>
        <time>2002-11-30T09:10:38Z</time>
      </trkpt>
      <trkpt lat="44.443044662475586" lon="11.207535266876221">
        <ele>270</ele>
        <time>2002-11-30T09:10:40Z</time>
      </trkpt>
      <trkpt lat="44.442679882049561" lon="11.206955909729004">
        <ele>265</ele>
        <time>2002-11-30T09:10:49Z</time>
      </trkpt>
      <trkpt lat="44.442594135180116" lon="11.206827163696289">
        <ele>264</ele>
        <time>2002-11-30T09:10:51Z</time>
      </trkpt>
      <trkpt lat="44.442443763837218" lon="11.206355094909668">
        <ele>260</ele>
        <time>2002-11-30T09:10:56Z</time>
      </trkpt>
      <trkpt lat="44.442400932312012" lon="11.206140518188477">
        <ele>257</ele>
        <time>2002-11-30T09:10:58Z</time>
      </trkpt>
      <trkpt lat="44.442336559295654" lon="11.205904483795166">
        <ele>253</ele>
        <time>2002-11-30T09:11:01Z</time>
      </trkpt>
      <trkpt lat="44.442443763837218" lon="11.205582618713379">
        <ele>249</ele>
        <time>2002-11-30T09:11:05Z</time>
      </trkpt>
      <trkpt lat="44.442636966705322" lon="11.205282211303711">
        <ele>245</ele>
        <time>2002-11-30T09:11:08Z</time>
      </trkpt>
      <trkpt lat="44.442830085754395" lon="11.205110466107726">
        <ele>240</ele>
        <time>2002-11-30T09:11:11Z</time>
      </trkpt>
      <trkpt lat="44.442873001098633" lon="11.20506763458252">
        <ele>239</ele>
        <time>2002-11-30T09:11:12Z</time>
      </trkpt>
      <trkpt lat="44.442873001098633" lon="11.204831600189209">
        <ele>235</ele>
        <time>2002-11-30T09:11:16Z</time>
      </trkpt>
      <trkpt lat="44.442636966705322" lon="11.204917430877686">
        <ele>233</ele>
        <time>2002-11-30T09:11:20Z</time>
      </trkpt>
      <trkpt lat="44.442400932312012" lon="11.204810058698058">
        <ele>228</ele>
        <time>2002-11-30T09:11:26Z</time>
      </trkpt>
      <trkpt lat="44.442529678344727" lon="11.204595565795898">
        <ele>227</ele>
        <time>2002-11-30T09:11:29Z</time>
      </trkpt>
      <trkpt lat="44.442765712738037" lon="11.20431661605835">
        <ele>222</ele>
        <time>2002-11-30T09:11:33Z</time>
      </trkpt>
      <trkpt lat="44.442787170410156" lon="11.203994834795594">
        <ele>216</ele>
        <time>2002-11-30T09:11:37Z</time>
      </trkpt>
      <trkpt lat="44.442830085754395" lon="11.20380163192749">
        <ele>213</ele>
        <time>2002-11-30T09:11:40Z</time>
      </trkpt>
      <trkpt lat="44.442873001098633" lon="11.203715801239014">
        <ele>213</ele>
        <time>2002-11-30T09:11:41Z</time>
      </trkpt>
      <trkpt lat="44.442958831787109" lon="11.203587139025331">
        <ele>210</ele>
        <time>2002-11-30T09:11:43Z</time>
      </trkpt>
      <trkpt lat="44.443066120147705" lon="11.20330810546875">
        <ele>205</ele>
        <time>2002-11-30T09:11:47Z</time>
      </trkpt>
      <trkpt lat="44.443066120147705" lon="11.203093528747559">
        <ele>203</ele>
        <time>2002-11-30T09:11:49Z</time>
      </trkpt>
      <trkpt lat="44.443087577819824" lon="11.203007698059082">
        <ele>203</ele>
        <time>2002-05-12T07:50:29Z</time>
      </trkpt>
      <trkpt lat="44.443087577819824" lon="11.202921867370605">
        <ele>202</ele>
        <time>2002-05-12T07:50:30Z</time>
      </trkpt>
      <trkpt lat="44.443216323852539" lon="11.202900409698486">
        <ele>200</ele>
        <time>2002-05-12T07:50:35Z</time>
      </trkpt>
      <trkpt lat="44.443237781524658" lon="11.203179359436035">
        <ele>196</ele>
        <time>2002-05-12T07:50:39Z</time>
      </trkpt>
      <trkpt lat="44.443345069885254" lon="11.203179359436035">
        <ele>193</ele>
        <time>2002-05-12T07:50:42Z</time>
      </trkpt>
      <trkpt lat="44.443366527557373" lon="11.203007698059082">
        <ele>192</ele>
        <time>2002-05-12T07:50:44Z</time>
      </trkpt>
      <trkpt lat="44.443345069885254" lon="11.20255708694458">
        <ele>185</ele>
        <time>2002-05-12T07:50:49Z</time>
      </trkpt>
      <trkpt lat="44.443259239196777" lon="11.202406883239746">
        <ele>184</ele>
        <time>2002-05-12T07:50:51Z</time>
      </trkpt>
      <trkpt lat="44.443152034655213" lon="11.202278137207031">
        <ele>183</ele>
        <time>2002-05-12T07:50:53Z</time>
      </trkpt>
      <trkpt lat="44.442958831787109" lon="11.202127933502197">
        <ele>180</ele>
        <time>2002-05-12T07:50:56Z</time>
      </trkpt>
      <trkpt lat="44.442830085754395" lon="11.202042102813721">
        <ele>177</ele>
        <time>2002-05-12T07:50:58Z</time>
      </trkpt>
      <trkpt lat="44.442894458770752" lon="11.201891899108887">
        <ele>174</ele>
        <time>2002-05-12T07:51:03Z</time>
      </trkpt>
      <trkpt lat="44.44319486618042" lon="11.201977729797363">
        <ele>171</ele>
        <time>2002-05-12T07:51:07Z</time>
      </trkpt>
      <trkpt lat="44.443345069885254" lon="11.20202056132257">
        <ele>169</ele>
        <time>2002-05-12T07:51:09Z</time>
      </trkpt>
      <trkpt lat="44.443366527557373" lon="11.201913440600038">
        <ele>169</ele>
        <time>1989-12-31T00:00:00Z</time>
      </trkpt>
    </trkseg>
  </trk>

  <trk>
    <name>Percorso 002</name>
    <trkseg>
      <trkpt lat="44.442551136016846" lon="11.199681758880615">
        <ele>138</ele>
        <time>1989-12-31T00:00:00Z</time>
      </trkpt>
      <trkpt lat="44.442573515698314" lon="11.199565920978785">
        <ele>138</ele>
        <time>1989-12-31T00:00:00Z</time>
      </trkpt>
      <trkpt lat="44.442250728607178" lon="11.199252605438232">
        <ele>140</ele>
        <time>2002-05-12T07:57:50Z</time>
      </trkpt>
      <trkpt lat="44.441735660657287" lon="11.199166774749756">
        <ele>140</ele>
        <time>2002-05-12T07:58:05Z</time>
      </trkpt>
      <trkpt lat="44.44094181060791" lon="11.199424266815186">
        <ele>140</ele>
        <time>2002-05-12T07:58:26Z</time>
      </trkpt>
      <trkpt lat="44.440748691558838" lon="11.1995530128479">
        <ele>141</ele>
        <time>2002-05-12T07:58:31Z</time>
      </trkpt>
      <trkpt lat="44.439997673034668" lon="11.20006799697876">
        <ele>142</ele>
        <time>2002-05-12T07:58:51Z</time>
      </trkpt>
      <trkpt lat="44.439826011657715" lon="11.200089538469911">
        <ele>143</ele>
        <time>2002-05-12T07:58:55Z</time>
      </trkpt>
      <trkpt lat="44.439311027526855" lon="11.199703216552734">
        <ele>145</ele>
        <time>2002-05-12T07:59:11Z</time>
      </trkpt>
      <trkpt lat="44.438688838854432" lon="11.199102401733398">
        <ele>148</ele>
        <time>2002-05-12T07:59:31Z</time>
      </trkpt>
      <trkpt lat="44.437808990478516" lon="11.198909282684326">
        <ele>149</ele>
        <time>2002-05-12T07:59:52Z</time>
      </trkpt>
      <trkpt lat="44.436843395233154" lon="11.198694705963135">
        <ele>151</ele>
        <time>2002-05-12T08:00:15Z</time>
      </trkpt>
      <trkpt lat="44.43596363067627" lon="11.198480129241943">
        <ele>152</ele>
        <time>2002-05-12T08:00:36Z</time>
      </trkpt>
      <trkpt lat="44.435534477233887" lon="11.198351383209229">
        <ele>154</ele>
        <time>2002-05-12T08:00:52Z</time>
      </trkpt>
      <trkpt lat="44.435513019561768" lon="11.198351383209229">
        <ele>153</ele>
        <time>2002-05-12T08:00:53Z</time>
      </trkpt>
      <trkpt lat="44.435513019561768" lon="11.198222637176514">
        <ele>154</ele>
        <time>2002-05-12T08:00:57Z</time>
      </trkpt>
      <trkpt lat="44.435555934906006" lon="11.19781494140625">
        <ele>156</ele>
        <time>2002-05-12T08:01:12Z</time>
      </trkpt>
      <trkpt lat="44.435727596282959" lon="11.197514533996582">
        <ele>159</ele>
        <time>2002-05-12T08:01:27Z</time>
      </trkpt>
      <trkpt lat="44.435791969299316" lon="11.19732141494751">
        <ele>162</ele>
        <time>2002-05-12T08:01:36Z</time>
      </trkpt>
      <trkpt lat="44.435834884643555" lon="11.197106838226318">
        <ele>165</ele>
        <time>2002-05-12T08:01:48Z</time>
      </trkpt>
      <trkpt lat="44.435791969299316" lon="11.196849262341857">
        <ele>168</ele>
        <time>2002-05-12T08:02:02Z</time>
      </trkpt>
      <trkpt lat="44.43574913777411" lon="11.196613311767578">
        <ele>171</ele>
        <time>2002-05-12T08:02:16Z</time>
      </trkpt>
      <trkpt lat="44.435598934069276" lon="11.196420192718506">
        <ele>174</ele>
        <time>2002-05-12T08:02:32Z</time>
      </trkpt>
      <trkpt lat="44.435448562726378" lon="11.196269989013672">
        <ele>178</ele>
        <time>2002-05-12T08:02:45Z</time>
      </trkpt>
      <trkpt lat="44.435448562726378" lon="11.196248531341553">
        <ele>177</ele>
        <time>2002-05-12T08:02:46Z</time>
      </trkpt>
      <trkpt lat="44.4352126121521" lon="11.19605541229248">
        <ele>179</ele>
        <time>2002-05-12T08:03:05Z</time>
      </trkpt>
      <trkpt lat="44.43495512008667" lon="11.195862293243408">
        <ele>182</ele>
        <time>2002-05-12T08:03:24Z</time>
      </trkpt>
      <trkpt lat="44.434676170349121" lon="11.195669174194336">
        <ele>184</ele>
        <time>2002-05-12T08:03:41Z</time>
      </trkpt>
      <trkpt lat="44.434311389923096" lon="11.19556188583374">
        <ele>185</ele>
        <time>2002-05-12T08:03:59Z</time>
      </trkpt>
      <trkpt lat="44.434096813201904" lon="11.195497512817383">
        <ele>189</ele>
        <time>2002-05-12T08:04:12Z</time>
      </trkpt>
      <trkpt lat="44.43394660949707" lon="11.195390224456787">
        <ele>191</ele>
        <time>2002-05-12T08:04:21Z</time>
      </trkpt>
      <trkpt lat="44.433903694152832" lon="11.195325935259461">
        <ele>192</ele>
        <time>2002-05-12T08:04:24Z</time>
      </trkpt>
      <trkpt lat="44.433882236480713" lon="11.194832324981689">
        <ele>195</ele>
        <time>2002-05-12T08:04:42Z</time>
      </trkpt>
      <trkpt lat="44.433796405792236" lon="11.194510459899902">
        <ele>199</ele>
        <time>2002-05-12T08:04:54Z</time>
      </trkpt>
      <trkpt lat="44.433732032775879" lon="11.194145679473877">
        <ele>202</ele>
        <time>2002-05-12T08:05:07Z</time>
      </trkpt>
      <trkpt lat="44.433646202087402" lon="11.193673610687256">
        <ele>205</ele>
        <time>2002-05-12T08:05:25Z</time>
      </trkpt>
      <trkpt lat="44.433560371398926" lon="11.193373203277588">
        <ele>208</ele>
        <time>2002-05-12T08:05:37Z</time>
      </trkpt>
      <trkpt lat="44.43345308303833" lon="11.193115711212158">
        <ele>211</ele>
        <time>2002-05-12T08:05:50Z</time>
      </trkpt>
      <trkpt lat="44.433367336168885" lon="11.192965507507324">
        <ele>214</ele>
        <time>2002-05-12T08:05:59Z</time>
      </trkpt>
      <trkpt lat="44.433238506317139" lon="11.192750930786133">
        <ele>217</ele>
        <time>2002-05-12T08:06:11Z</time>
      </trkpt>
      <trkpt lat="44.433045387268066" lon="11.192407608032227">
        <ele>220</ele>
        <time>2002-05-12T08:06:29Z</time>
      </trkpt>
      <trkpt lat="44.432873725891113" lon="11.192278861999512">
        <ele>223</ele>
        <time>2002-05-12T08:06:41Z</time>
      </trkpt>
      <trkpt lat="44.432766437530518" lon="11.192235862836242">
        <ele>227</ele>
        <time>2002-05-12T08:06:51Z</time>
      </trkpt>
      <trkpt lat="44.432723522186279" lon="11.192214488983154">
        <ele>227</ele>
        <time>2002-05-12T08:06:54Z</time>
      </trkpt>
      <trkpt lat="44.432680606842041" lon="11.192107200622559">
        <ele>229</ele>
        <time>2002-05-12T08:07:00Z</time>
      </trkpt>
      <trkpt lat="44.432723522186279" lon="11.192021369934082">
        <ele>230</ele>
        <time>2002-05-12T08:07:04Z</time>
      </trkpt>
      <trkpt lat="44.432787895202637" lon="11.191742420196533">
        <ele>233</ele>
        <time>2002-05-12T08:07:19Z</time>
      </trkpt>
      <trkpt lat="44.432895183563232" lon="11.191399097442627">
        <ele>237</ele>
        <time>2002-05-12T08:07:36Z</time>
      </trkpt>
      <trkpt lat="44.433002471923828" lon="11.190991401672363">
        <ele>239</ele>
        <time>2002-05-12T08:07:56Z</time>
      </trkpt>
      <trkpt lat="44.433066761121154" lon="11.190755367279053">
        <ele>243</ele>
        <time>2002-05-12T08:08:07Z</time>
      </trkpt>
      <trkpt lat="44.433216964825988" lon="11.190047264099121">
        <ele>243</ele>
        <time>1989-12-31T00:00:00Z</time>
      </trkpt>
    </trkseg>
  </trk>

  <trk>
    <name>Percorso 003</name>
    <trkseg>
      <trkpt lat="44.434397220611572" lon="11.180198192596436">
        <ele>133</ele>
        <time>1989-12-31T00:00:00Z</time>
      </trkpt>
      <trkpt lat="44.43446159362793" lon="11.180284023284912">
        <ele>133</ele>
        <time>2002-05-12T08:19:14Z</time>
      </trkpt>
      <trkpt lat="44.434633338823915" lon="11.180391311645508">
        <ele>132</ele>
        <time>2002-05-12T08:19:29Z</time>
      </trkpt>
      <trkpt lat="44.435148239135742" lon="11.180884838104248">
        <ele>132</ele>
        <time>2002-05-12T08:19:49Z</time>
      </trkpt>
      <trkpt lat="44.43570613861084" lon="11.181056499481201">
        <ele>132</ele>
        <time>2002-05-12T08:20:04Z</time>
      </trkpt>
      <trkpt lat="44.43619966506958" lon="11.181099414825439">
        <ele>131</ele>
        <time>2002-05-12T08:20:18Z</time>
      </trkpt>
      <trkpt lat="44.436736106872559" lon="11.181249618530273">
        <ele>130</ele>
        <time>2002-05-12T08:20:32Z</time>
      </trkpt>
      <trkpt lat="44.437723159790039" lon="11.181378364562988">
        <ele>128</ele>
        <time>2002-05-12T08:20:53Z</time>
      </trkpt>
      <trkpt lat="44.437851905822754" lon="11.181399822235107">
        <ele>127</ele>
        <time>2002-05-12T08:20:57Z</time>
      </trkpt>
      <trkpt lat="44.438731670379639" lon="11.181442737579346">
        <ele>128</ele>
        <time>2002-05-12T08:21:15Z</time>
      </trkpt>
      <trkpt lat="44.438881874084473" lon="11.181292533874512">
        <ele>128</ele>
        <time>2002-05-12T08:21:20Z</time>
      </trkpt>
      <trkpt lat="44.438946163281798" lon="11.180777465924621">
        <ele>128</ele>
        <time>2002-05-12T08:21:30Z</time>
      </trkpt>
      <trkpt lat="44.439096534624696" lon="11.180734634399414">
        <ele>129</ele>
        <time>2002-05-12T08:21:34Z</time>
      </trkpt>
      <trkpt lat="44.439718723297119" lon="11.18084192276001">
        <ele>128</ele>
        <time>2002-05-12T08:21:51Z</time>
      </trkpt>
      <trkpt lat="44.439937574788928" lon="11.180871007964015">
        <ele>128</ele>
        <time>1989-12-31T00:00:00Z</time>
      </trkpt>
    </trkseg>
  </trk>

</gpx>
